<?xml version="1.0" encoding="UTF-8" standalone="no" ?>
<gpx xmlns="http://www.topografix.com/GPX/1/1" xmlns:xsi="http://www.w3.org/2001/XMLSchema-instance" xsi:schemaLocation="http://www.topografix.com/GPX/1/1 http://www.topografix.com/GPX/1/1/gpx.xsd" version="1.1" creator="VisuGPX - https://www.visugpx.com">
  <metadata>
    <name>BPF55km2026</name>
  </metadata>
  <trk>
    <name><![CDATA[BPF-55 KM-2026-23033758]]></name>
    <extensions>
      <line xmlns="http://www.topografix.com/GPX/gpx_style/0/2">
        <color>0000FF</color>
        <width>4</width>
      </line>
    </extensions>
    <trkseg>
      <trkpt lat="50.56756" lon="3.44531">
        <ele>20</ele>
        <time>2026-01-26T14:38:34Z</time>
      </trkpt>
      <trkpt lat="50.56767" lon="3.44531">
        <ele>20</ele>
        <time>2026-01-26T14:38:36Z</time>
      </trkpt>
      <trkpt lat="50.56788" lon="3.44566">
        <ele>21</ele>
        <time>2026-01-26T14:38:41Z</time>
      </trkpt>
      <trkpt lat="50.56839" lon="3.44629">
        <ele>23</ele>
        <time>2026-01-26T14:38:53Z</time>
      </trkpt>
      <trkpt lat="50.56839" lon="3.44636">
        <ele>23</ele>
        <time>2026-01-26T14:38:54Z</time>
      </trkpt>
      <trkpt lat="50.56772" lon="3.44956">
        <ele>32</ele>
        <time>2026-01-26T14:39:32Z</time>
      </trkpt>
      <trkpt lat="50.5677" lon="3.44999">
        <ele>34</ele>
        <time>2026-01-26T14:39:37Z</time>
      </trkpt>
      <trkpt lat="50.56737" lon="3.45141">
        <ele>36</ele>
        <time>2026-01-26T14:39:54Z</time>
      </trkpt>
      <trkpt lat="50.56722" lon="3.45284">
        <ele>37</ele>
        <time>2026-01-26T14:40:10Z</time>
      </trkpt>
      <trkpt lat="50.56716" lon="3.45306">
        <ele>37</ele>
        <time>2026-01-26T14:40:13Z</time>
      </trkpt>
      <trkpt lat="50.56693" lon="3.45358">
        <ele>38</ele>
        <time>2026-01-26T14:40:20Z</time>
      </trkpt>
      <trkpt lat="50.56666" lon="3.45444">
        <ele>38</ele>
        <time>2026-01-26T14:40:31Z</time>
      </trkpt>
      <trkpt lat="50.56399" lon="3.45192">
        <ele>39</ele>
        <time>2026-01-26T14:41:26Z</time>
      </trkpt>
      <trkpt lat="50.56364" lon="3.45299">
        <ele>40</ele>
        <time>2026-01-26T14:41:40Z</time>
      </trkpt>
      <trkpt lat="50.56228" lon="3.45538">
        <ele>37</ele>
        <time>2026-01-26T14:42:16Z</time>
      </trkpt>
      <trkpt lat="50.56192" lon="3.45645">
        <ele>36</ele>
        <time>2026-01-26T14:42:30Z</time>
      </trkpt>
      <trkpt lat="50.56178" lon="3.45679">
        <ele>35</ele>
        <time>2026-01-26T14:42:34Z</time>
      </trkpt>
      <trkpt lat="50.56099" lon="3.45847">
        <ele>31</ele>
        <time>2026-01-26T14:42:58Z</time>
      </trkpt>
      <trkpt lat="50.56053" lon="3.45961">
        <ele>30</ele>
        <time>2026-01-26T14:43:13Z</time>
      </trkpt>
      <trkpt lat="50.55989" lon="3.46088">
        <ele>26</ele>
        <time>2026-01-26T14:43:32Z</time>
      </trkpt>
      <trkpt lat="50.55896" lon="3.46264">
        <ele>28</ele>
        <time>2026-01-26T14:43:57Z</time>
      </trkpt>
      <trkpt lat="50.55847" lon="3.46346">
        <ele>28</ele>
        <time>2026-01-26T14:44:10Z</time>
      </trkpt>
      <trkpt lat="50.55814" lon="3.46418">
        <ele>27</ele>
        <time>2026-01-26T14:44:20Z</time>
      </trkpt>
      <trkpt lat="50.55804" lon="3.4641">
        <ele>28</ele>
        <time>2026-01-26T14:44:22Z</time>
      </trkpt>
      <trkpt lat="50.55795" lon="3.46394">
        <ele>28</ele>
        <time>2026-01-26T14:44:25Z</time>
      </trkpt>
      <trkpt lat="50.55795" lon="3.46352">
        <ele>29</ele>
        <time>2026-01-26T14:44:29Z</time>
      </trkpt>
      <trkpt lat="50.55808" lon="3.46307">
        <ele>28</ele>
        <time>2026-01-26T14:44:35Z</time>
      </trkpt>
      <trkpt lat="50.55815" lon="3.46106">
        <ele>25</ele>
        <time>2026-01-26T14:44:58Z</time>
      </trkpt>
      <trkpt lat="50.55811" lon="3.4608">
        <ele>25</ele>
        <time>2026-01-26T14:45:01Z</time>
      </trkpt>
      <trkpt lat="50.55778" lon="3.45951">
        <ele>25</ele>
        <time>2026-01-26T14:45:16Z</time>
      </trkpt>
      <trkpt lat="50.55756" lon="3.45901">
        <ele>26</ele>
        <time>2026-01-26T14:45:23Z</time>
      </trkpt>
      <trkpt lat="50.55709" lon="3.45822">
        <ele>25</ele>
        <time>2026-01-26T14:45:36Z</time>
      </trkpt>
      <trkpt lat="50.55647" lon="3.45728">
        <ele>24</ele>
        <time>2026-01-26T14:45:51Z</time>
      </trkpt>
      <trkpt lat="50.55613" lon="3.45699">
        <ele>24</ele>
        <time>2026-01-26T14:45:58Z</time>
      </trkpt>
      <trkpt lat="50.55597" lon="3.45696">
        <ele>24</ele>
        <time>2026-01-26T14:46:01Z</time>
      </trkpt>
      <trkpt lat="50.55524" lon="3.45635">
        <ele>26</ele>
        <time>2026-01-26T14:46:15Z</time>
      </trkpt>
      <trkpt lat="50.55517" lon="3.45626">
        <ele>26</ele>
        <time>2026-01-26T14:46:17Z</time>
      </trkpt>
      <trkpt lat="50.55514" lon="3.45605">
        <ele>26</ele>
        <time>2026-01-26T14:46:19Z</time>
      </trkpt>
      <trkpt lat="50.55528" lon="3.45539">
        <ele>25</ele>
        <time>2026-01-26T14:46:27Z</time>
      </trkpt>
      <trkpt lat="50.5554" lon="3.455">
        <ele>24</ele>
        <time>2026-01-26T14:46:32Z</time>
      </trkpt>
      <trkpt lat="50.55577" lon="3.45431">
        <ele>22</ele>
        <time>2026-01-26T14:46:42Z</time>
      </trkpt>
      <trkpt lat="50.55583" lon="3.45411">
        <ele>22</ele>
        <time>2026-01-26T14:46:45Z</time>
      </trkpt>
      <trkpt lat="50.55608" lon="3.45371">
        <ele>22</ele>
        <time>2026-01-26T14:46:51Z</time>
      </trkpt>
      <trkpt lat="50.55636" lon="3.45317">
        <ele>22</ele>
        <time>2026-01-26T14:46:59Z</time>
      </trkpt>
      <trkpt lat="50.55656" lon="3.45288">
        <ele>21</ele>
        <time>2026-01-26T14:47:04Z</time>
      </trkpt>
      <trkpt lat="50.55685" lon="3.45268">
        <ele>21</ele>
        <time>2026-01-26T14:47:10Z</time>
      </trkpt>
      <trkpt lat="50.55693" lon="3.45245">
        <ele>21</ele>
        <time>2026-01-26T14:47:13Z</time>
      </trkpt>
      <trkpt lat="50.55672" lon="3.45153">
        <ele>21</ele>
        <time>2026-01-26T14:47:24Z</time>
      </trkpt>
      <trkpt lat="50.55662" lon="3.45115">
        <ele>20</ele>
        <time>2026-01-26T14:47:28Z</time>
      </trkpt>
      <trkpt lat="50.55653" lon="3.45091">
        <ele>20</ele>
        <time>2026-01-26T14:47:31Z</time>
      </trkpt>
      <trkpt lat="50.55612" lon="3.45019">
        <ele>19</ele>
        <time>2026-01-26T14:47:42Z</time>
      </trkpt>
      <trkpt lat="50.55566" lon="3.44893">
        <ele>18</ele>
        <time>2026-01-26T14:47:59Z</time>
      </trkpt>
      <trkpt lat="50.55521" lon="3.44791">
        <ele>18</ele>
        <time>2026-01-26T14:48:13Z</time>
      </trkpt>
      <trkpt lat="50.55451" lon="3.44665">
        <ele>17</ele>
        <time>2026-01-26T14:48:32Z</time>
      </trkpt>
      <trkpt lat="50.55327" lon="3.44845">
        <ele>18</ele>
        <time>2026-01-26T14:49:02Z</time>
      </trkpt>
      <trkpt lat="50.55176" lon="3.45125">
        <ele>20</ele>
        <time>2026-01-26T14:49:43Z</time>
      </trkpt>
      <trkpt lat="50.55107" lon="3.45263">
        <ele>22</ele>
        <time>2026-01-26T14:50:03Z</time>
      </trkpt>
      <trkpt lat="50.55044" lon="3.45409">
        <ele>22</ele>
        <time>2026-01-26T14:50:23Z</time>
      </trkpt>
      <trkpt lat="50.55034" lon="3.45414">
        <ele>22</ele>
        <time>2026-01-26T14:50:25Z</time>
      </trkpt>
      <trkpt lat="50.55112" lon="3.45701">
        <ele>24</ele>
        <time>2026-01-26T14:51:00Z</time>
      </trkpt>
      <trkpt lat="50.5512" lon="3.4579">
        <ele>25</ele>
        <time>2026-01-26T14:51:10Z</time>
      </trkpt>
      <trkpt lat="50.55136" lon="3.45826">
        <ele>25</ele>
        <time>2026-01-26T14:51:15Z</time>
      </trkpt>
      <trkpt lat="50.55141" lon="3.45854">
        <ele>25</ele>
        <time>2026-01-26T14:51:19Z</time>
      </trkpt>
      <trkpt lat="50.5514" lon="3.45871">
        <ele>26</ele>
        <time>2026-01-26T14:51:21Z</time>
      </trkpt>
      <trkpt lat="50.55112" lon="3.45981">
        <ele>27</ele>
        <time>2026-01-26T14:51:34Z</time>
      </trkpt>
      <trkpt lat="50.55111" lon="3.45996">
        <ele>27</ele>
        <time>2026-01-26T14:51:36Z</time>
      </trkpt>
      <trkpt lat="50.55117" lon="3.46077">
        <ele>27</ele>
        <time>2026-01-26T14:51:45Z</time>
      </trkpt>
      <trkpt lat="50.55114" lon="3.46098">
        <ele>27</ele>
        <time>2026-01-26T14:51:47Z</time>
      </trkpt>
      <trkpt lat="50.55095" lon="3.46136">
        <ele>26</ele>
        <time>2026-01-26T14:51:53Z</time>
      </trkpt>
      <trkpt lat="50.55064" lon="3.46185">
        <ele>25</ele>
        <time>2026-01-26T14:52:01Z</time>
      </trkpt>
      <trkpt lat="50.55033" lon="3.46152">
        <ele>25</ele>
        <time>2026-01-26T14:52:07Z</time>
      </trkpt>
      <trkpt lat="50.54919" lon="3.46084">
        <ele>23</ele>
        <time>2026-01-26T14:52:29Z</time>
      </trkpt>
      <trkpt lat="50.54864" lon="3.46056">
        <ele>23</ele>
        <time>2026-01-26T14:52:39Z</time>
      </trkpt>
      <trkpt lat="50.54847" lon="3.46058">
        <ele>23</ele>
        <time>2026-01-26T14:52:42Z</time>
      </trkpt>
      <trkpt lat="50.54806" lon="3.46178">
        <ele>23</ele>
        <time>2026-01-26T14:52:58Z</time>
      </trkpt>
      <trkpt lat="50.54762" lon="3.4624">
        <ele>23</ele>
        <time>2026-01-26T14:53:08Z</time>
      </trkpt>
      <trkpt lat="50.5482" lon="3.46483">
        <ele>22</ele>
        <time>2026-01-26T14:53:38Z</time>
      </trkpt>
      <trkpt lat="50.54901" lon="3.46793">
        <ele>22</ele>
        <time>2026-01-26T14:54:15Z</time>
      </trkpt>
      <trkpt lat="50.55164" lon="3.47875">
        <ele>27</ele>
        <time>2026-01-26T14:56:26Z</time>
      </trkpt>
      <trkpt lat="50.55193" lon="3.48002">
        <ele>27</ele>
        <time>2026-01-26T14:56:42Z</time>
      </trkpt>
      <trkpt lat="50.55201" lon="3.48026">
        <ele>27</ele>
        <time>2026-01-26T14:56:45Z</time>
      </trkpt>
      <trkpt lat="50.5521" lon="3.48008">
        <ele>26</ele>
        <time>2026-01-26T14:56:47Z</time>
      </trkpt>
      <trkpt lat="50.55262" lon="3.47984">
        <ele>26</ele>
        <time>2026-01-26T14:56:57Z</time>
      </trkpt>
      <trkpt lat="50.55363" lon="3.47919">
        <ele>28</ele>
        <time>2026-01-26T14:57:16Z</time>
      </trkpt>
      <trkpt lat="50.55589" lon="3.47782">
        <ele>32</ele>
        <time>2026-01-26T14:57:59Z</time>
      </trkpt>
      <trkpt lat="50.55614" lon="3.4777">
        <ele>33</ele>
        <time>2026-01-26T14:58:04Z</time>
      </trkpt>
      <trkpt lat="50.55641" lon="3.47762">
        <ele>34</ele>
        <time>2026-01-26T14:58:09Z</time>
      </trkpt>
      <trkpt lat="50.55682" lon="3.4776">
        <ele>35</ele>
        <time>2026-01-26T14:58:16Z</time>
      </trkpt>
      <trkpt lat="50.55697" lon="3.47752">
        <ele>35</ele>
        <time>2026-01-26T14:58:19Z</time>
      </trkpt>
      <trkpt lat="50.55711" lon="3.47735">
        <ele>35</ele>
        <time>2026-01-26T14:58:22Z</time>
      </trkpt>
      <trkpt lat="50.55729" lon="3.47697">
        <ele>34</ele>
        <time>2026-01-26T14:58:28Z</time>
      </trkpt>
      <trkpt lat="50.55748" lon="3.47678">
        <ele>33</ele>
        <time>2026-01-26T14:58:32Z</time>
      </trkpt>
      <trkpt lat="50.55766" lon="3.47674">
        <ele>33</ele>
        <time>2026-01-26T14:58:35Z</time>
      </trkpt>
      <trkpt lat="50.5585" lon="3.47677">
        <ele>30</ele>
        <time>2026-01-26T14:58:50Z</time>
      </trkpt>
      <trkpt lat="50.55864" lon="3.47683">
        <ele>31</ele>
        <time>2026-01-26T14:58:52Z</time>
      </trkpt>
      <trkpt lat="50.55879" lon="3.47697">
        <ele>31</ele>
        <time>2026-01-26T14:58:55Z</time>
      </trkpt>
      <trkpt lat="50.5591" lon="3.47759">
        <ele>33</ele>
        <time>2026-01-26T14:59:04Z</time>
      </trkpt>
      <trkpt lat="50.55919" lon="3.47767">
        <ele>33</ele>
        <time>2026-01-26T14:59:06Z</time>
      </trkpt>
      <trkpt lat="50.56023" lon="3.47768">
        <ele>33</ele>
        <time>2026-01-26T14:59:25Z</time>
      </trkpt>
      <trkpt lat="50.56081" lon="3.47789">
        <ele>36</ele>
        <time>2026-01-26T14:59:35Z</time>
      </trkpt>
      <trkpt lat="50.56104" lon="3.47822">
        <ele>36</ele>
        <time>2026-01-26T14:59:41Z</time>
      </trkpt>
      <trkpt lat="50.56145" lon="3.47873">
        <ele>37</ele>
        <time>2026-01-26T14:59:50Z</time>
      </trkpt>
      <trkpt lat="50.56107" lon="3.48178">
        <ele>38</ele>
        <time>2026-01-26T15:00:25Z</time>
      </trkpt>
      <trkpt lat="50.56096" lon="3.48294">
        <ele>36</ele>
        <time>2026-01-26T15:00:39Z</time>
      </trkpt>
      <trkpt lat="50.56077" lon="3.4841">
        <ele>36</ele>
        <time>2026-01-26T15:00:52Z</time>
      </trkpt>
      <trkpt lat="50.56049" lon="3.48533">
        <ele>33</ele>
        <time>2026-01-26T15:01:07Z</time>
      </trkpt>
      <trkpt lat="50.55997" lon="3.48653">
        <ele>32</ele>
        <time>2026-01-26T15:01:23Z</time>
      </trkpt>
      <trkpt lat="50.55958" lon="3.48682">
        <ele>31</ele>
        <time>2026-01-26T15:01:31Z</time>
      </trkpt>
      <trkpt lat="50.55949" lon="3.487">
        <ele>31</ele>
        <time>2026-01-26T15:01:34Z</time>
      </trkpt>
      <trkpt lat="50.55921" lon="3.48801">
        <ele>30</ele>
        <time>2026-01-26T15:01:46Z</time>
      </trkpt>
      <trkpt lat="50.55909" lon="3.48901">
        <ele>28</ele>
        <time>2026-01-26T15:01:57Z</time>
      </trkpt>
      <trkpt lat="50.55898" lon="3.48968">
        <ele>30</ele>
        <time>2026-01-26T15:02:05Z</time>
      </trkpt>
      <trkpt lat="50.55871" lon="3.49081">
        <ele>33</ele>
        <time>2026-01-26T15:02:19Z</time>
      </trkpt>
      <trkpt lat="50.55859" lon="3.49241">
        <ele>31</ele>
        <time>2026-01-26T15:02:37Z</time>
      </trkpt>
      <trkpt lat="50.55736" lon="3.49234">
        <ele>32</ele>
        <time>2026-01-26T15:02:59Z</time>
      </trkpt>
      <trkpt lat="50.55707" lon="3.4922">
        <ele>31</ele>
        <time>2026-01-26T15:03:04Z</time>
      </trkpt>
      <trkpt lat="50.55672" lon="3.4918">
        <ele>32</ele>
        <time>2026-01-26T15:03:12Z</time>
      </trkpt>
      <trkpt lat="50.55632" lon="3.49158">
        <ele>31</ele>
        <time>2026-01-26T15:03:20Z</time>
      </trkpt>
      <trkpt lat="50.5562" lon="3.4916">
        <ele>31</ele>
        <time>2026-01-26T15:03:22Z</time>
      </trkpt>
      <trkpt lat="50.55615" lon="3.49171">
        <ele>31</ele>
        <time>2026-01-26T15:03:23Z</time>
      </trkpt>
      <trkpt lat="50.55585" lon="3.49308">
        <ele>30</ele>
        <time>2026-01-26T15:03:40Z</time>
      </trkpt>
      <trkpt lat="50.55578" lon="3.49323">
        <ele>30</ele>
        <time>2026-01-26T15:03:42Z</time>
      </trkpt>
      <trkpt lat="50.55489" lon="3.49348">
        <ele>29</ele>
        <time>2026-01-26T15:03:58Z</time>
      </trkpt>
      <trkpt lat="50.55471" lon="3.49349">
        <ele>28</ele>
        <time>2026-01-26T15:04:01Z</time>
      </trkpt>
      <trkpt lat="50.55458" lon="3.49361">
        <ele>28</ele>
        <time>2026-01-26T15:04:04Z</time>
      </trkpt>
      <trkpt lat="50.55451" lon="3.49383">
        <ele>28</ele>
        <time>2026-01-26T15:04:07Z</time>
      </trkpt>
      <trkpt lat="50.55438" lon="3.49442">
        <ele>29</ele>
        <time>2026-01-26T15:04:14Z</time>
      </trkpt>
      <trkpt lat="50.55397" lon="3.49642">
        <ele>34</ele>
        <time>2026-01-26T15:04:37Z</time>
      </trkpt>
      <trkpt lat="50.55393" lon="3.49722">
        <ele>37</ele>
        <time>2026-01-26T15:04:47Z</time>
      </trkpt>
      <trkpt lat="50.55388" lon="3.49743">
        <ele>38</ele>
        <time>2026-01-26T15:04:49Z</time>
      </trkpt>
      <trkpt lat="50.55353" lon="3.49845">
        <ele>38</ele>
        <time>2026-01-26T15:05:02Z</time>
      </trkpt>
      <trkpt lat="50.55302" lon="3.49929">
        <ele>34</ele>
        <time>2026-01-26T15:05:15Z</time>
      </trkpt>
      <trkpt lat="50.55247" lon="3.50041">
        <ele>34</ele>
        <time>2026-01-26T15:05:31Z</time>
      </trkpt>
      <trkpt lat="50.55159" lon="3.50391">
        <ele>38</ele>
        <time>2026-01-26T15:06:14Z</time>
      </trkpt>
      <trkpt lat="50.5514" lon="3.50452">
        <ele>39</ele>
        <time>2026-01-26T15:06:22Z</time>
      </trkpt>
      <trkpt lat="50.55089" lon="3.50567">
        <ele>39</ele>
        <time>2026-01-26T15:06:37Z</time>
      </trkpt>
      <trkpt lat="50.55086" lon="3.50592">
        <ele>39</ele>
        <time>2026-01-26T15:06:40Z</time>
      </trkpt>
      <trkpt lat="50.55087" lon="3.50621">
        <ele>40</ele>
        <time>2026-01-26T15:06:44Z</time>
      </trkpt>
      <trkpt lat="50.55101" lon="3.50663">
        <ele>41</ele>
        <time>2026-01-26T15:06:49Z</time>
      </trkpt>
      <trkpt lat="50.55104" lon="3.50688">
        <ele>41</ele>
        <time>2026-01-26T15:06:52Z</time>
      </trkpt>
      <trkpt lat="50.55102" lon="3.50716">
        <ele>42</ele>
        <time>2026-01-26T15:06:55Z</time>
      </trkpt>
      <trkpt lat="50.5509" lon="3.50786">
        <ele>43</ele>
        <time>2026-01-26T15:07:03Z</time>
      </trkpt>
      <trkpt lat="50.5509" lon="3.50814">
        <ele>44</ele>
        <time>2026-01-26T15:07:06Z</time>
      </trkpt>
      <trkpt lat="50.55094" lon="3.50843">
        <ele>45</ele>
        <time>2026-01-26T15:07:10Z</time>
      </trkpt>
      <trkpt lat="50.55077" lon="3.50883">
        <ele>47</ele>
        <time>2026-01-26T15:07:15Z</time>
      </trkpt>
      <trkpt lat="50.55053" lon="3.50963">
        <ele>48</ele>
        <time>2026-01-26T15:07:25Z</time>
      </trkpt>
      <trkpt lat="50.55017" lon="3.51152">
        <ele>48</ele>
        <time>2026-01-26T15:07:47Z</time>
      </trkpt>
      <trkpt lat="50.55218" lon="3.51331">
        <ele>58</ele>
        <time>2026-01-26T15:08:29Z</time>
      </trkpt>
      <trkpt lat="50.55326" lon="3.51422">
        <ele>57</ele>
        <time>2026-01-26T15:08:50Z</time>
      </trkpt>
      <trkpt lat="50.5535" lon="3.5143">
        <ele>57</ele>
        <time>2026-01-26T15:08:55Z</time>
      </trkpt>
      <trkpt lat="50.55369" lon="3.51429">
        <ele>57</ele>
        <time>2026-01-26T15:08:58Z</time>
      </trkpt>
      <trkpt lat="50.55396" lon="3.51423">
        <ele>57</ele>
        <time>2026-01-26T15:09:03Z</time>
      </trkpt>
      <trkpt lat="50.55416" lon="3.51411">
        <ele>57</ele>
        <time>2026-01-26T15:09:07Z</time>
      </trkpt>
      <trkpt lat="50.55512" lon="3.51309">
        <ele>58</ele>
        <time>2026-01-26T15:09:27Z</time>
      </trkpt>
      <trkpt lat="50.55529" lon="3.51301">
        <ele>58</ele>
        <time>2026-01-26T15:09:30Z</time>
      </trkpt>
      <trkpt lat="50.55531" lon="3.51311">
        <ele>58</ele>
        <time>2026-01-26T15:09:32Z</time>
      </trkpt>
      <trkpt lat="50.55531" lon="3.51322">
        <ele>58</ele>
        <time>2026-01-26T15:09:33Z</time>
      </trkpt>
      <trkpt lat="50.55523" lon="3.51322">
        <ele>58</ele>
        <time>2026-01-26T15:09:34Z</time>
      </trkpt>
      <trkpt lat="50.55513" lon="3.51331">
        <ele>58</ele>
        <time>2026-01-26T15:09:36Z</time>
      </trkpt>
      <trkpt lat="50.5543" lon="3.51423">
        <ele>57</ele>
        <time>2026-01-26T15:09:54Z</time>
      </trkpt>
      <trkpt lat="50.55415" lon="3.51435">
        <ele>57</ele>
        <time>2026-01-26T15:09:57Z</time>
      </trkpt>
      <trkpt lat="50.55383" lon="3.51451">
        <ele>57</ele>
        <time>2026-01-26T15:10:03Z</time>
      </trkpt>
      <trkpt lat="50.55347" lon="3.51459">
        <ele>56</ele>
        <time>2026-01-26T15:10:10Z</time>
      </trkpt>
      <trkpt lat="50.55307" lon="3.5149">
        <ele>57</ele>
        <time>2026-01-26T15:10:18Z</time>
      </trkpt>
      <trkpt lat="50.55284" lon="3.51518">
        <ele>58</ele>
        <time>2026-01-26T15:10:23Z</time>
      </trkpt>
      <trkpt lat="50.5523" lon="3.5161">
        <ele>56</ele>
        <time>2026-01-26T15:10:37Z</time>
      </trkpt>
      <trkpt lat="50.55196" lon="3.5168">
        <ele>56</ele>
        <time>2026-01-26T15:10:47Z</time>
      </trkpt>
      <trkpt lat="50.5507" lon="3.52067">
        <ele>56</ele>
        <time>2026-01-26T15:11:36Z</time>
      </trkpt>
      <trkpt lat="50.55018" lon="3.52262">
        <ele>57</ele>
        <time>2026-01-26T15:12:00Z</time>
      </trkpt>
      <trkpt lat="50.54893" lon="3.52808">
        <ele>54</ele>
        <time>2026-01-26T15:13:06Z</time>
      </trkpt>
      <trkpt lat="50.54841" lon="3.53071">
        <ele>54</ele>
        <time>2026-01-26T15:13:37Z</time>
      </trkpt>
      <trkpt lat="50.5479" lon="3.53353">
        <ele>54</ele>
        <time>2026-01-26T15:14:10Z</time>
      </trkpt>
      <trkpt lat="50.54791" lon="3.53371">
        <ele>54</ele>
        <time>2026-01-26T15:14:12Z</time>
      </trkpt>
      <trkpt lat="50.548" lon="3.53397">
        <ele>55</ele>
        <time>2026-01-26T15:14:15Z</time>
      </trkpt>
      <trkpt lat="50.54824" lon="3.53433">
        <ele>55</ele>
        <time>2026-01-26T15:14:21Z</time>
      </trkpt>
      <trkpt lat="50.54845" lon="3.53448">
        <ele>56</ele>
        <time>2026-01-26T15:14:25Z</time>
      </trkpt>
      <trkpt lat="50.54926" lon="3.53472">
        <ele>57</ele>
        <time>2026-01-26T15:14:40Z</time>
      </trkpt>
      <trkpt lat="50.54986" lon="3.53495">
        <ele>55</ele>
        <time>2026-01-26T15:14:51Z</time>
      </trkpt>
      <trkpt lat="50.55036" lon="3.53518">
        <ele>54</ele>
        <time>2026-01-26T15:15:00Z</time>
      </trkpt>
      <trkpt lat="50.55076" lon="3.53555">
        <ele>52</ele>
        <time>2026-01-26T15:15:09Z</time>
      </trkpt>
      <trkpt lat="50.55115" lon="3.53597">
        <ele>51</ele>
        <time>2026-01-26T15:15:17Z</time>
      </trkpt>
      <trkpt lat="50.55094" lon="3.53618">
        <ele>51</ele>
        <time>2026-01-26T15:15:21Z</time>
      </trkpt>
      <trkpt lat="50.55065" lon="3.53678">
        <ele>51</ele>
        <time>2026-01-26T15:15:30Z</time>
      </trkpt>
      <trkpt lat="50.55049" lon="3.53696">
        <ele>51</ele>
        <time>2026-01-26T15:15:34Z</time>
      </trkpt>
      <trkpt lat="50.54968" lon="3.5374">
        <ele>53</ele>
        <time>2026-01-26T15:15:49Z</time>
      </trkpt>
      <trkpt lat="50.5495" lon="3.53752">
        <ele>53</ele>
        <time>2026-01-26T15:15:52Z</time>
      </trkpt>
      <trkpt lat="50.54918" lon="3.53789">
        <ele>53</ele>
        <time>2026-01-26T15:15:59Z</time>
      </trkpt>
      <trkpt lat="50.54886" lon="3.5384">
        <ele>52</ele>
        <time>2026-01-26T15:16:07Z</time>
      </trkpt>
      <trkpt lat="50.54852" lon="3.53886">
        <ele>51</ele>
        <time>2026-01-26T15:16:15Z</time>
      </trkpt>
      <trkpt lat="50.54833" lon="3.53896">
        <ele>51</ele>
        <time>2026-01-26T15:16:19Z</time>
      </trkpt>
      <trkpt lat="50.54798" lon="3.53902">
        <ele>52</ele>
        <time>2026-01-26T15:16:25Z</time>
      </trkpt>
      <trkpt lat="50.54746" lon="3.5388">
        <ele>53</ele>
        <time>2026-01-26T15:16:35Z</time>
      </trkpt>
      <trkpt lat="50.54501" lon="3.53767">
        <ele>49</ele>
        <time>2026-01-26T15:17:20Z</time>
      </trkpt>
      <trkpt lat="50.5446" lon="3.53727">
        <ele>49</ele>
        <time>2026-01-26T15:17:29Z</time>
      </trkpt>
      <trkpt lat="50.54347" lon="3.53861">
        <ele>49</ele>
        <time>2026-01-26T15:17:54Z</time>
      </trkpt>
      <trkpt lat="50.5428" lon="3.53974">
        <ele>48</ele>
        <time>2026-01-26T15:18:11Z</time>
      </trkpt>
      <trkpt lat="50.54189" lon="3.54222">
        <ele>47</ele>
        <time>2026-01-26T15:18:44Z</time>
      </trkpt>
      <trkpt lat="50.54138" lon="3.54329">
        <ele>47</ele>
        <time>2026-01-26T15:18:59Z</time>
      </trkpt>
      <trkpt lat="50.54118" lon="3.54365">
        <ele>47</ele>
        <time>2026-01-26T15:19:04Z</time>
      </trkpt>
      <trkpt lat="50.54093" lon="3.54425">
        <ele>47</ele>
        <time>2026-01-26T15:19:12Z</time>
      </trkpt>
      <trkpt lat="50.54125" lon="3.54464">
        <ele>47</ele>
        <time>2026-01-26T15:19:20Z</time>
      </trkpt>
      <trkpt lat="50.54132" lon="3.54489">
        <ele>47</ele>
        <time>2026-01-26T15:19:23Z</time>
      </trkpt>
      <trkpt lat="50.54147" lon="3.54585">
        <ele>47</ele>
        <time>2026-01-26T15:19:34Z</time>
      </trkpt>
      <trkpt lat="50.54182" lon="3.54699">
        <ele>46</ele>
        <time>2026-01-26T15:19:48Z</time>
      </trkpt>
      <trkpt lat="50.54186" lon="3.5472">
        <ele>46</ele>
        <time>2026-01-26T15:19:51Z</time>
      </trkpt>
      <trkpt lat="50.54106" lon="3.54731">
        <ele>46</ele>
        <time>2026-01-26T15:20:05Z</time>
      </trkpt>
      <trkpt lat="50.54093" lon="3.54743">
        <ele>46</ele>
        <time>2026-01-26T15:20:08Z</time>
      </trkpt>
      <trkpt lat="50.54084" lon="3.54758">
        <ele>46</ele>
        <time>2026-01-26T15:20:10Z</time>
      </trkpt>
      <trkpt lat="50.53912" lon="3.55178">
        <ele>43</ele>
        <time>2026-01-26T15:21:07Z</time>
      </trkpt>
      <trkpt lat="50.53829" lon="3.55451">
        <ele>42</ele>
        <time>2026-01-26T15:21:41Z</time>
      </trkpt>
      <trkpt lat="50.53791" lon="3.55509">
        <ele>41</ele>
        <time>2026-01-26T15:21:50Z</time>
      </trkpt>
      <trkpt lat="50.53778" lon="3.55521">
        <ele>41</ele>
        <time>2026-01-26T15:21:53Z</time>
      </trkpt>
      <trkpt lat="50.53767" lon="3.55526">
        <ele>41</ele>
        <time>2026-01-26T15:21:55Z</time>
      </trkpt>
      <trkpt lat="50.53757" lon="3.55524">
        <ele>41</ele>
        <time>2026-01-26T15:21:57Z</time>
      </trkpt>
      <trkpt lat="50.53715" lon="3.55654">
        <ele>41</ele>
        <time>2026-01-26T15:22:13Z</time>
      </trkpt>
      <trkpt lat="50.53675" lon="3.55722">
        <ele>41</ele>
        <time>2026-01-26T15:22:24Z</time>
      </trkpt>
      <trkpt lat="50.53757" lon="3.5584">
        <ele>40</ele>
        <time>2026-01-26T15:22:43Z</time>
      </trkpt>
      <trkpt lat="50.53777" lon="3.55855">
        <ele>40</ele>
        <time>2026-01-26T15:22:47Z</time>
      </trkpt>
      <trkpt lat="50.53797" lon="3.5586">
        <ele>40</ele>
        <time>2026-01-26T15:22:51Z</time>
      </trkpt>
      <trkpt lat="50.53831" lon="3.55852">
        <ele>40</ele>
        <time>2026-01-26T15:22:57Z</time>
      </trkpt>
      <trkpt lat="50.53843" lon="3.55852">
        <ele>40</ele>
        <time>2026-01-26T15:22:59Z</time>
      </trkpt>
      <trkpt lat="50.53864" lon="3.55865">
        <ele>40</ele>
        <time>2026-01-26T15:23:03Z</time>
      </trkpt>
      <trkpt lat="50.54296" lon="3.56437">
        <ele>37</ele>
        <time>2026-01-26T15:24:44Z</time>
      </trkpt>
      <trkpt lat="50.54319" lon="3.56472">
        <ele>37</ele>
        <time>2026-01-26T15:24:49Z</time>
      </trkpt>
      <trkpt lat="50.5434" lon="3.56524">
        <ele>37</ele>
        <time>2026-01-26T15:24:56Z</time>
      </trkpt>
      <trkpt lat="50.54371" lon="3.56758">
        <ele>38</ele>
        <time>2026-01-26T15:25:23Z</time>
      </trkpt>
      <trkpt lat="50.5438" lon="3.56779">
        <ele>37</ele>
        <time>2026-01-26T15:25:26Z</time>
      </trkpt>
      <trkpt lat="50.54394" lon="3.56792">
        <ele>37</ele>
        <time>2026-01-26T15:25:29Z</time>
      </trkpt>
      <trkpt lat="50.5441" lon="3.56794">
        <ele>37</ele>
        <time>2026-01-26T15:25:32Z</time>
      </trkpt>
      <trkpt lat="50.54426" lon="3.56788">
        <ele>38</ele>
        <time>2026-01-26T15:25:35Z</time>
      </trkpt>
      <trkpt lat="50.5448" lon="3.56738">
        <ele>40</ele>
        <time>2026-01-26T15:25:46Z</time>
      </trkpt>
      <trkpt lat="50.54501" lon="3.56735">
        <ele>40</ele>
        <time>2026-01-26T15:25:50Z</time>
      </trkpt>
      <trkpt lat="50.54641" lon="3.56753">
        <ele>37</ele>
        <time>2026-01-26T15:26:15Z</time>
      </trkpt>
      <trkpt lat="50.54669" lon="3.56761">
        <ele>37</ele>
        <time>2026-01-26T15:26:20Z</time>
      </trkpt>
      <trkpt lat="50.54691" lon="3.56782">
        <ele>38</ele>
        <time>2026-01-26T15:26:24Z</time>
      </trkpt>
      <trkpt lat="50.54731" lon="3.56831">
        <ele>40</ele>
        <time>2026-01-26T15:26:33Z</time>
      </trkpt>
      <trkpt lat="50.54753" lon="3.56867">
        <ele>40</ele>
        <time>2026-01-26T15:26:39Z</time>
      </trkpt>
      <trkpt lat="50.54763" lon="3.56897">
        <ele>40</ele>
        <time>2026-01-26T15:26:43Z</time>
      </trkpt>
      <trkpt lat="50.54781" lon="3.56974">
        <ele>40</ele>
        <time>2026-01-26T15:26:52Z</time>
      </trkpt>
      <trkpt lat="50.54845" lon="3.56945">
        <ele>42</ele>
        <time>2026-01-26T15:27:04Z</time>
      </trkpt>
      <trkpt lat="50.54898" lon="3.56899">
        <ele>42</ele>
        <time>2026-01-26T15:27:15Z</time>
      </trkpt>
      <trkpt lat="50.54921" lon="3.56891">
        <ele>42</ele>
        <time>2026-01-26T15:27:19Z</time>
      </trkpt>
      <trkpt lat="50.55023" lon="3.5688">
        <ele>43</ele>
        <time>2026-01-26T15:27:37Z</time>
      </trkpt>
      <trkpt lat="50.55092" lon="3.5687">
        <ele>42</ele>
        <time>2026-01-26T15:27:50Z</time>
      </trkpt>
      <trkpt lat="50.55133" lon="3.56854">
        <ele>42</ele>
        <time>2026-01-26T15:27:57Z</time>
      </trkpt>
      <trkpt lat="50.55146" lon="3.56837">
        <ele>42</ele>
        <time>2026-01-26T15:28:00Z</time>
      </trkpt>
      <trkpt lat="50.55187" lon="3.56759">
        <ele>44</ele>
        <time>2026-01-26T15:28:12Z</time>
      </trkpt>
      <trkpt lat="50.55217" lon="3.56643">
        <ele>45</ele>
        <time>2026-01-26T15:28:26Z</time>
      </trkpt>
      <trkpt lat="50.55457" lon="3.56939">
        <ele>47</ele>
        <time>2026-01-26T15:29:20Z</time>
      </trkpt>
      <trkpt lat="50.55469" lon="3.5686">
        <ele>46</ele>
        <time>2026-01-26T15:29:29Z</time>
      </trkpt>
      <trkpt lat="50.55475" lon="3.56801">
        <ele>46</ele>
        <time>2026-01-26T15:29:36Z</time>
      </trkpt>
      <trkpt lat="50.5548" lon="3.56695">
        <ele>47</ele>
        <time>2026-01-26T15:29:48Z</time>
      </trkpt>
      <trkpt lat="50.55487" lon="3.56661">
        <ele>48</ele>
        <time>2026-01-26T15:29:52Z</time>
      </trkpt>
      <trkpt lat="50.55495" lon="3.56637">
        <ele>48</ele>
        <time>2026-01-26T15:29:55Z</time>
      </trkpt>
      <trkpt lat="50.55518" lon="3.56595">
        <ele>48</ele>
        <time>2026-01-26T15:30:01Z</time>
      </trkpt>
      <trkpt lat="50.55584" lon="3.56498">
        <ele>48</ele>
        <time>2026-01-26T15:30:17Z</time>
      </trkpt>
      <trkpt lat="50.55599" lon="3.5648">
        <ele>49</ele>
        <time>2026-01-26T15:30:21Z</time>
      </trkpt>
      <trkpt lat="50.55613" lon="3.56442">
        <ele>50</ele>
        <time>2026-01-26T15:30:26Z</time>
      </trkpt>
      <trkpt lat="50.55618" lon="3.5641">
        <ele>51</ele>
        <time>2026-01-26T15:30:29Z</time>
      </trkpt>
      <trkpt lat="50.55619" lon="3.56378">
        <ele>51</ele>
        <time>2026-01-26T15:30:33Z</time>
      </trkpt>
      <trkpt lat="50.55614" lon="3.56336">
        <ele>51</ele>
        <time>2026-01-26T15:30:38Z</time>
      </trkpt>
      <trkpt lat="50.55611" lon="3.5626">
        <ele>51</ele>
        <time>2026-01-26T15:30:46Z</time>
      </trkpt>
      <trkpt lat="50.55614" lon="3.56206">
        <ele>51</ele>
        <time>2026-01-26T15:30:53Z</time>
      </trkpt>
      <trkpt lat="50.55623" lon="3.56158">
        <ele>50</ele>
        <time>2026-01-26T15:30:58Z</time>
      </trkpt>
      <trkpt lat="50.55637" lon="3.56114">
        <ele>50</ele>
        <time>2026-01-26T15:31:04Z</time>
      </trkpt>
      <trkpt lat="50.55708" lon="3.55957">
        <ele>44</ele>
        <time>2026-01-26T15:31:26Z</time>
      </trkpt>
      <trkpt lat="50.55774" lon="3.55782">
        <ele>47</ele>
        <time>2026-01-26T15:31:49Z</time>
      </trkpt>
      <trkpt lat="50.55786" lon="3.55735">
        <ele>48</ele>
        <time>2026-01-26T15:31:54Z</time>
      </trkpt>
      <trkpt lat="50.55836" lon="3.55412">
        <ele>48</ele>
        <time>2026-01-26T15:32:32Z</time>
      </trkpt>
      <trkpt lat="50.55841" lon="3.55331">
        <ele>47</ele>
        <time>2026-01-26T15:32:41Z</time>
      </trkpt>
      <trkpt lat="50.55838" lon="3.55218">
        <ele>46</ele>
        <time>2026-01-26T15:32:54Z</time>
      </trkpt>
      <trkpt lat="50.55827" lon="3.55078">
        <ele>44</ele>
        <time>2026-01-26T15:33:10Z</time>
      </trkpt>
      <trkpt lat="50.55832" lon="3.55039">
        <ele>44</ele>
        <time>2026-01-26T15:33:14Z</time>
      </trkpt>
      <trkpt lat="50.56005" lon="3.55122">
        <ele>46</ele>
        <time>2026-01-26T15:33:47Z</time>
      </trkpt>
      <trkpt lat="50.56091" lon="3.55171">
        <ele>46</ele>
        <time>2026-01-26T15:34:03Z</time>
      </trkpt>
      <trkpt lat="50.5616" lon="3.55193">
        <ele>47</ele>
        <time>2026-01-26T15:34:15Z</time>
      </trkpt>
      <trkpt lat="50.56175" lon="3.55209">
        <ele>47</ele>
        <time>2026-01-26T15:34:19Z</time>
      </trkpt>
      <trkpt lat="50.56223" lon="3.55297">
        <ele>48</ele>
        <time>2026-01-26T15:34:32Z</time>
      </trkpt>
      <trkpt lat="50.56254" lon="3.55332">
        <ele>48</ele>
        <time>2026-01-26T15:34:38Z</time>
      </trkpt>
      <trkpt lat="50.56342" lon="3.5541">
        <ele>51</ele>
        <time>2026-01-26T15:34:56Z</time>
      </trkpt>
      <trkpt lat="50.56377" lon="3.55453">
        <ele>51</ele>
        <time>2026-01-26T15:35:04Z</time>
      </trkpt>
      <trkpt lat="50.56414" lon="3.55506">
        <ele>51</ele>
        <time>2026-01-26T15:35:13Z</time>
      </trkpt>
      <trkpt lat="50.56447" lon="3.55563">
        <ele>52</ele>
        <time>2026-01-26T15:35:22Z</time>
      </trkpt>
      <trkpt lat="50.56488" lon="3.55646">
        <ele>52</ele>
        <time>2026-01-26T15:35:34Z</time>
      </trkpt>
      <trkpt lat="50.56498" lon="3.55674">
        <ele>52</ele>
        <time>2026-01-26T15:35:37Z</time>
      </trkpt>
      <trkpt lat="50.56553" lon="3.55791">
        <ele>54</ele>
        <time>2026-01-26T15:35:54Z</time>
      </trkpt>
      <trkpt lat="50.56577" lon="3.55821">
        <ele>55</ele>
        <time>2026-01-26T15:35:59Z</time>
      </trkpt>
      <trkpt lat="50.56606" lon="3.55849">
        <ele>55</ele>
        <time>2026-01-26T15:36:05Z</time>
      </trkpt>
      <trkpt lat="50.56654" lon="3.55887">
        <ele>56</ele>
        <time>2026-01-26T15:36:15Z</time>
      </trkpt>
      <trkpt lat="50.56669" lon="3.5591">
        <ele>57</ele>
        <time>2026-01-26T15:36:19Z</time>
      </trkpt>
      <trkpt lat="50.56721" lon="3.55948">
        <ele>56</ele>
        <time>2026-01-26T15:36:29Z</time>
      </trkpt>
      <trkpt lat="50.56757" lon="3.55962">
        <ele>56</ele>
        <time>2026-01-26T15:36:35Z</time>
      </trkpt>
      <trkpt lat="50.56845" lon="3.56015">
        <ele>56</ele>
        <time>2026-01-26T15:36:52Z</time>
      </trkpt>
      <trkpt lat="50.56867" lon="3.56032">
        <ele>57</ele>
        <time>2026-01-26T15:36:57Z</time>
      </trkpt>
      <trkpt lat="50.56896" lon="3.56066">
        <ele>58</ele>
        <time>2026-01-26T15:37:03Z</time>
      </trkpt>
      <trkpt lat="50.56922" lon="3.56105">
        <ele>59</ele>
        <time>2026-01-26T15:37:09Z</time>
      </trkpt>
      <trkpt lat="50.56937" lon="3.56133">
        <ele>60</ele>
        <time>2026-01-26T15:37:14Z</time>
      </trkpt>
      <trkpt lat="50.57031" lon="3.56336">
        <ele>64</ele>
        <time>2026-01-26T15:37:42Z</time>
      </trkpt>
      <trkpt lat="50.57041" lon="3.56373">
        <ele>64</ele>
        <time>2026-01-26T15:37:46Z</time>
      </trkpt>
      <trkpt lat="50.57052" lon="3.56467">
        <ele>64</ele>
        <time>2026-01-26T15:37:57Z</time>
      </trkpt>
      <trkpt lat="50.57066" lon="3.56515">
        <ele>65</ele>
        <time>2026-01-26T15:38:03Z</time>
      </trkpt>
      <trkpt lat="50.57089" lon="3.5656">
        <ele>66</ele>
        <time>2026-01-26T15:38:10Z</time>
      </trkpt>
      <trkpt lat="50.57114" lon="3.56601">
        <ele>67</ele>
        <time>2026-01-26T15:38:16Z</time>
      </trkpt>
      <trkpt lat="50.57163" lon="3.56711">
        <ele>67</ele>
        <time>2026-01-26T15:38:31Z</time>
      </trkpt>
      <trkpt lat="50.57214" lon="3.56817">
        <ele>67</ele>
        <time>2026-01-26T15:38:46Z</time>
      </trkpt>
      <trkpt lat="50.57272" lon="3.56935">
        <ele>66</ele>
        <time>2026-01-26T15:39:03Z</time>
      </trkpt>
      <trkpt lat="50.57364" lon="3.57111">
        <ele>63</ele>
        <time>2026-01-26T15:39:29Z</time>
      </trkpt>
      <trkpt lat="50.57361" lon="3.57139">
        <ele>63</ele>
        <time>2026-01-26T15:39:32Z</time>
      </trkpt>
      <trkpt lat="50.57352" lon="3.57178">
        <ele>64</ele>
        <time>2026-01-26T15:39:37Z</time>
      </trkpt>
      <trkpt lat="50.57351" lon="3.57193">
        <ele>64</ele>
        <time>2026-01-26T15:39:39Z</time>
      </trkpt>
      <trkpt lat="50.57354" lon="3.57205">
        <ele>64</ele>
        <time>2026-01-26T15:39:40Z</time>
      </trkpt>
      <trkpt lat="50.57418" lon="3.57346">
        <ele>62</ele>
        <time>2026-01-26T15:40:00Z</time>
      </trkpt>
      <trkpt lat="50.57504" lon="3.57562">
        <ele>59</ele>
        <time>2026-01-26T15:40:28Z</time>
      </trkpt>
      <trkpt lat="50.57556" lon="3.57661">
        <ele>57</ele>
        <time>2026-01-26T15:40:43Z</time>
      </trkpt>
      <trkpt lat="50.57585" lon="3.57743">
        <ele>57</ele>
        <time>2026-01-26T15:40:54Z</time>
      </trkpt>
      <trkpt lat="50.57741" lon="3.58211">
        <ele>55</ele>
        <time>2026-01-26T15:41:53Z</time>
      </trkpt>
      <trkpt lat="50.57743" lon="3.5823">
        <ele>55</ele>
        <time>2026-01-26T15:41:56Z</time>
      </trkpt>
      <trkpt lat="50.57736" lon="3.5829">
        <ele>54</ele>
        <time>2026-01-26T15:42:02Z</time>
      </trkpt>
      <trkpt lat="50.57736" lon="3.5831">
        <ele>54</ele>
        <time>2026-01-26T15:42:05Z</time>
      </trkpt>
      <trkpt lat="50.57741" lon="3.58331">
        <ele>54</ele>
        <time>2026-01-26T15:42:07Z</time>
      </trkpt>
      <trkpt lat="50.57747" lon="3.58338">
        <ele>54</ele>
        <time>2026-01-26T15:42:09Z</time>
      </trkpt>
      <trkpt lat="50.57792" lon="3.58349">
        <ele>54</ele>
        <time>2026-01-26T15:42:17Z</time>
      </trkpt>
      <trkpt lat="50.5783" lon="3.58364">
        <ele>55</ele>
        <time>2026-01-26T15:42:24Z</time>
      </trkpt>
      <trkpt lat="50.579" lon="3.58383">
        <ele>55</ele>
        <time>2026-01-26T15:42:36Z</time>
      </trkpt>
      <trkpt lat="50.57925" lon="3.58389">
        <ele>55</ele>
        <time>2026-01-26T15:42:41Z</time>
      </trkpt>
      <trkpt lat="50.57975" lon="3.58392">
        <ele>54</ele>
        <time>2026-01-26T15:42:50Z</time>
      </trkpt>
      <trkpt lat="50.58047" lon="3.58417">
        <ele>52</ele>
        <time>2026-01-26T15:43:03Z</time>
      </trkpt>
      <trkpt lat="50.5806" lon="3.58424">
        <ele>52</ele>
        <time>2026-01-26T15:43:05Z</time>
      </trkpt>
      <trkpt lat="50.5807" lon="3.58434">
        <ele>53</ele>
        <time>2026-01-26T15:43:07Z</time>
      </trkpt>
      <trkpt lat="50.58094" lon="3.58472">
        <ele>53</ele>
        <time>2026-01-26T15:43:13Z</time>
      </trkpt>
      <trkpt lat="50.58107" lon="3.58498">
        <ele>54</ele>
        <time>2026-01-26T15:43:17Z</time>
      </trkpt>
      <trkpt lat="50.58115" lon="3.58545">
        <ele>55</ele>
        <time>2026-01-26T15:43:23Z</time>
      </trkpt>
      <trkpt lat="50.58128" lon="3.58577">
        <ele>56</ele>
        <time>2026-01-26T15:43:27Z</time>
      </trkpt>
      <trkpt lat="50.58141" lon="3.58595">
        <ele>56</ele>
        <time>2026-01-26T15:43:30Z</time>
      </trkpt>
      <trkpt lat="50.58172" lon="3.58615">
        <ele>56</ele>
        <time>2026-01-26T15:43:36Z</time>
      </trkpt>
      <trkpt lat="50.58188" lon="3.58632">
        <ele>57</ele>
        <time>2026-01-26T15:43:39Z</time>
      </trkpt>
      <trkpt lat="50.58217" lon="3.58611">
        <ele>57</ele>
        <time>2026-01-26T15:43:45Z</time>
      </trkpt>
      <trkpt lat="50.58237" lon="3.58604">
        <ele>57</ele>
        <time>2026-01-26T15:43:49Z</time>
      </trkpt>
      <trkpt lat="50.58237" lon="3.58647">
        <ele>58</ele>
        <time>2026-01-26T15:43:54Z</time>
      </trkpt>
      <trkpt lat="50.58241" lon="3.58667">
        <ele>59</ele>
        <time>2026-01-26T15:43:56Z</time>
      </trkpt>
      <trkpt lat="50.58248" lon="3.58686">
        <ele>59</ele>
        <time>2026-01-26T15:43:58Z</time>
      </trkpt>
      <trkpt lat="50.58299" lon="3.58739">
        <ele>60</ele>
        <time>2026-01-26T15:44:09Z</time>
      </trkpt>
      <trkpt lat="50.58388" lon="3.58846">
        <ele>60</ele>
        <time>2026-01-26T15:44:29Z</time>
      </trkpt>
      <trkpt lat="50.58454" lon="3.58946">
        <ele>59</ele>
        <time>2026-01-26T15:44:45Z</time>
      </trkpt>
      <trkpt lat="50.58494" lon="3.59016">
        <ele>58</ele>
        <time>2026-01-26T15:44:56Z</time>
      </trkpt>
      <trkpt lat="50.58523" lon="3.59052">
        <ele>58</ele>
        <time>2026-01-26T15:45:03Z</time>
      </trkpt>
      <trkpt lat="50.58554" lon="3.5908">
        <ele>56</ele>
        <time>2026-01-26T15:45:09Z</time>
      </trkpt>
      <trkpt lat="50.58617" lon="3.5913">
        <ele>54</ele>
        <time>2026-01-26T15:45:22Z</time>
      </trkpt>
      <trkpt lat="50.58707" lon="3.59184">
        <ele>53</ele>
        <time>2026-01-26T15:45:39Z</time>
      </trkpt>
      <trkpt lat="50.58761" lon="3.59196">
        <ele>53</ele>
        <time>2026-01-26T15:45:48Z</time>
      </trkpt>
      <trkpt lat="50.58845" lon="3.59239">
        <ele>52</ele>
        <time>2026-01-26T15:46:04Z</time>
      </trkpt>
      <trkpt lat="50.58992" lon="3.59297">
        <ele>51</ele>
        <time>2026-01-26T15:46:31Z</time>
      </trkpt>
      <trkpt lat="50.59053" lon="3.59323">
        <ele>50</ele>
        <time>2026-01-26T15:46:42Z</time>
      </trkpt>
      <trkpt lat="50.59075" lon="3.59336">
        <ele>50</ele>
        <time>2026-01-26T15:46:47Z</time>
      </trkpt>
      <trkpt lat="50.591" lon="3.59359">
        <ele>50</ele>
        <time>2026-01-26T15:46:52Z</time>
      </trkpt>
      <trkpt lat="50.59179" lon="3.59452">
        <ele>48</ele>
        <time>2026-01-26T15:47:09Z</time>
      </trkpt>
      <trkpt lat="50.59364" lon="3.59624">
        <ele>48</ele>
        <time>2026-01-26T15:47:47Z</time>
      </trkpt>
      <trkpt lat="50.59381" lon="3.59657">
        <ele>48</ele>
        <time>2026-01-26T15:47:52Z</time>
      </trkpt>
      <trkpt lat="50.5941" lon="3.59729">
        <ele>48</ele>
        <time>2026-01-26T15:48:02Z</time>
      </trkpt>
      <trkpt lat="50.59421" lon="3.5975">
        <ele>48</ele>
        <time>2026-01-26T15:48:05Z</time>
      </trkpt>
      <trkpt lat="50.5944" lon="3.59777">
        <ele>48</ele>
        <time>2026-01-26T15:48:10Z</time>
      </trkpt>
      <trkpt lat="50.59462" lon="3.59801">
        <ele>47</ele>
        <time>2026-01-26T15:48:14Z</time>
      </trkpt>
      <trkpt lat="50.59489" lon="3.59825">
        <ele>47</ele>
        <time>2026-01-26T15:48:20Z</time>
      </trkpt>
      <trkpt lat="50.59509" lon="3.5983">
        <ele>47</ele>
        <time>2026-01-26T15:48:23Z</time>
      </trkpt>
      <trkpt lat="50.59522" lon="3.59844">
        <ele>47</ele>
        <time>2026-01-26T15:48:26Z</time>
      </trkpt>
      <trkpt lat="50.59552" lon="3.59942">
        <ele>46</ele>
        <time>2026-01-26T15:48:39Z</time>
      </trkpt>
      <trkpt lat="50.59591" lon="3.60086">
        <ele>46</ele>
        <time>2026-01-26T15:48:56Z</time>
      </trkpt>
      <trkpt lat="50.59594" lon="3.60111">
        <ele>46</ele>
        <time>2026-01-26T15:48:59Z</time>
      </trkpt>
      <trkpt lat="50.59592" lon="3.60135">
        <ele>47</ele>
        <time>2026-01-26T15:49:02Z</time>
      </trkpt>
      <trkpt lat="50.59595" lon="3.60154">
        <ele>47</ele>
        <time>2026-01-26T15:49:04Z</time>
      </trkpt>
      <trkpt lat="50.59602" lon="3.60185">
        <ele>47</ele>
        <time>2026-01-26T15:49:08Z</time>
      </trkpt>
      <trkpt lat="50.5961" lon="3.60191">
        <ele>47</ele>
        <time>2026-01-26T15:49:09Z</time>
      </trkpt>
      <trkpt lat="50.59613" lon="3.60161">
        <ele>46</ele>
        <time>2026-01-26T15:49:13Z</time>
      </trkpt>
      <trkpt lat="50.59626" lon="3.60107">
        <ele>46</ele>
        <time>2026-01-26T15:49:19Z</time>
      </trkpt>
      <trkpt lat="50.59636" lon="3.60166">
        <ele>46</ele>
        <time>2026-01-26T15:49:26Z</time>
      </trkpt>
      <trkpt lat="50.5965" lon="3.6022">
        <ele>47</ele>
        <time>2026-01-26T15:49:33Z</time>
      </trkpt>
      <trkpt lat="50.59891" lon="3.61063">
        <ele>44</ele>
        <time>2026-01-26T15:51:17Z</time>
      </trkpt>
      <trkpt lat="50.599" lon="3.61077">
        <ele>44</ele>
        <time>2026-01-26T15:51:19Z</time>
      </trkpt>
      <trkpt lat="50.59908" lon="3.61066">
        <ele>43</ele>
        <time>2026-01-26T15:51:21Z</time>
      </trkpt>
      <trkpt lat="50.59912" lon="3.61054">
        <ele>43</ele>
        <time>2026-01-26T15:51:23Z</time>
      </trkpt>
      <trkpt lat="50.59915" lon="3.61019">
        <ele>43</ele>
        <time>2026-01-26T15:51:27Z</time>
      </trkpt>
      <trkpt lat="50.59921" lon="3.61004">
        <ele>43</ele>
        <time>2026-01-26T15:51:29Z</time>
      </trkpt>
      <trkpt lat="50.59969" lon="3.60952">
        <ele>45</ele>
        <time>2026-01-26T15:51:39Z</time>
      </trkpt>
      <trkpt lat="50.60073" lon="3.60826">
        <ele>49</ele>
        <time>2026-01-26T15:52:03Z</time>
      </trkpt>
      <trkpt lat="50.60088" lon="3.60804">
        <ele>50</ele>
        <time>2026-01-26T15:52:06Z</time>
      </trkpt>
      <trkpt lat="50.60093" lon="3.60786">
        <ele>50</ele>
        <time>2026-01-26T15:52:08Z</time>
      </trkpt>
      <trkpt lat="50.60094" lon="3.60765">
        <ele>51</ele>
        <time>2026-01-26T15:52:11Z</time>
      </trkpt>
      <trkpt lat="50.60068" lon="3.6068">
        <ele>52</ele>
        <time>2026-01-26T15:52:21Z</time>
      </trkpt>
      <trkpt lat="50.6006" lon="3.6064">
        <ele>53</ele>
        <time>2026-01-26T15:52:26Z</time>
      </trkpt>
      <trkpt lat="50.60061" lon="3.6059">
        <ele>54</ele>
        <time>2026-01-26T15:52:32Z</time>
      </trkpt>
      <trkpt lat="50.60068" lon="3.60553">
        <ele>55</ele>
        <time>2026-01-26T15:52:36Z</time>
      </trkpt>
      <trkpt lat="50.60259" lon="3.59841">
        <ele>66</ele>
        <time>2026-01-26T15:54:03Z</time>
      </trkpt>
      <trkpt lat="50.6027" lon="3.59765">
        <ele>68</ele>
        <time>2026-01-26T15:54:12Z</time>
      </trkpt>
      <trkpt lat="50.60267" lon="3.59691">
        <ele>70</ele>
        <time>2026-01-26T15:54:21Z</time>
      </trkpt>
      <trkpt lat="50.60274" lon="3.59635">
        <ele>70</ele>
        <time>2026-01-26T15:54:27Z</time>
      </trkpt>
      <trkpt lat="50.60282" lon="3.5961">
        <ele>71</ele>
        <time>2026-01-26T15:54:30Z</time>
      </trkpt>
      <trkpt lat="50.60319" lon="3.59535">
        <ele>73</ele>
        <time>2026-01-26T15:54:41Z</time>
      </trkpt>
      <trkpt lat="50.60274" lon="3.5942">
        <ele>74</ele>
        <time>2026-01-26T15:54:56Z</time>
      </trkpt>
      <trkpt lat="50.60258" lon="3.59356">
        <ele>73</ele>
        <time>2026-01-26T15:55:04Z</time>
      </trkpt>
      <trkpt lat="50.60221" lon="3.59182">
        <ele>73</ele>
        <time>2026-01-26T15:55:25Z</time>
      </trkpt>
      <trkpt lat="50.60215" lon="3.5917">
        <ele>74</ele>
        <time>2026-01-26T15:55:26Z</time>
      </trkpt>
      <trkpt lat="50.60243" lon="3.59135">
        <ele>74</ele>
        <time>2026-01-26T15:55:33Z</time>
      </trkpt>
      <trkpt lat="50.60281" lon="3.59099">
        <ele>75</ele>
        <time>2026-01-26T15:55:41Z</time>
      </trkpt>
      <trkpt lat="50.60348" lon="3.59049">
        <ele>76</ele>
        <time>2026-01-26T15:55:54Z</time>
      </trkpt>
      <trkpt lat="50.60525" lon="3.58977">
        <ele>68</ele>
        <time>2026-01-26T15:56:26Z</time>
      </trkpt>
      <trkpt lat="50.60555" lon="3.58962">
        <ele>68</ele>
        <time>2026-01-26T15:56:32Z</time>
      </trkpt>
      <trkpt lat="50.60588" lon="3.58937">
        <ele>68</ele>
        <time>2026-01-26T15:56:39Z</time>
      </trkpt>
      <trkpt lat="50.60664" lon="3.58869">
        <ele>69</ele>
        <time>2026-01-26T15:56:54Z</time>
      </trkpt>
      <trkpt lat="50.60733" lon="3.58819">
        <ele>69</ele>
        <time>2026-01-26T15:57:08Z</time>
      </trkpt>
      <trkpt lat="50.60779" lon="3.58777">
        <ele>69</ele>
        <time>2026-01-26T15:57:17Z</time>
      </trkpt>
      <trkpt lat="50.60906" lon="3.58628">
        <ele>61</ele>
        <time>2026-01-26T15:57:45Z</time>
      </trkpt>
      <trkpt lat="50.61033" lon="3.58469">
        <ele>60</ele>
        <time>2026-01-26T15:58:14Z</time>
      </trkpt>
      <trkpt lat="50.61068" lon="3.58418">
        <ele>60</ele>
        <time>2026-01-26T15:58:23Z</time>
      </trkpt>
      <trkpt lat="50.61131" lon="3.58357">
        <ele>62</ele>
        <time>2026-01-26T15:58:36Z</time>
      </trkpt>
      <trkpt lat="50.61142" lon="3.58349">
        <ele>63</ele>
        <time>2026-01-26T15:58:38Z</time>
      </trkpt>
      <trkpt lat="50.61246" lon="3.58301">
        <ele>68</ele>
        <time>2026-01-26T15:58:57Z</time>
      </trkpt>
      <trkpt lat="50.61263" lon="3.58301">
        <ele>69</ele>
        <time>2026-01-26T15:59:00Z</time>
      </trkpt>
      <trkpt lat="50.6127" lon="3.58307">
        <ele>70</ele>
        <time>2026-01-26T15:59:02Z</time>
      </trkpt>
      <trkpt lat="50.61281" lon="3.58309">
        <ele>70</ele>
        <time>2026-01-26T15:59:04Z</time>
      </trkpt>
      <trkpt lat="50.61352" lon="3.58282">
        <ele>74</ele>
        <time>2026-01-26T15:59:17Z</time>
      </trkpt>
      <trkpt lat="50.61372" lon="3.58271">
        <ele>75</ele>
        <time>2026-01-26T15:59:20Z</time>
      </trkpt>
      <trkpt lat="50.61402" lon="3.58252">
        <ele>76</ele>
        <time>2026-01-26T15:59:26Z</time>
      </trkpt>
      <trkpt lat="50.61435" lon="3.58224">
        <ele>77</ele>
        <time>2026-01-26T15:59:33Z</time>
      </trkpt>
      <trkpt lat="50.61527" lon="3.58155">
        <ele>77</ele>
        <time>2026-01-26T15:59:51Z</time>
      </trkpt>
      <trkpt lat="50.61571" lon="3.58118">
        <ele>77</ele>
        <time>2026-01-26T16:00:00Z</time>
      </trkpt>
      <trkpt lat="50.61635" lon="3.58056">
        <ele>75</ele>
        <time>2026-01-26T16:00:13Z</time>
      </trkpt>
      <trkpt lat="50.6165" lon="3.58046">
        <ele>75</ele>
        <time>2026-01-26T16:00:16Z</time>
      </trkpt>
      <trkpt lat="50.61673" lon="3.58038">
        <ele>74</ele>
        <time>2026-01-26T16:00:20Z</time>
      </trkpt>
      <trkpt lat="50.61688" lon="3.58038">
        <ele>74</ele>
        <time>2026-01-26T16:00:23Z</time>
      </trkpt>
      <trkpt lat="50.61722" lon="3.58048">
        <ele>73</ele>
        <time>2026-01-26T16:00:29Z</time>
      </trkpt>
      <trkpt lat="50.61754" lon="3.58062">
        <ele>72</ele>
        <time>2026-01-26T16:00:35Z</time>
      </trkpt>
      <trkpt lat="50.61772" lon="3.58062">
        <ele>73</ele>
        <time>2026-01-26T16:00:38Z</time>
      </trkpt>
      <trkpt lat="50.61836" lon="3.58028">
        <ele>75</ele>
        <time>2026-01-26T16:00:50Z</time>
      </trkpt>
      <trkpt lat="50.61993" lon="3.57937">
        <ele>79</ele>
        <time>2026-01-26T16:01:20Z</time>
      </trkpt>
      <trkpt lat="50.61981" lon="3.57858">
        <ele>78</ele>
        <time>2026-01-26T16:01:29Z</time>
      </trkpt>
      <trkpt lat="50.61978" lon="3.5782">
        <ele>78</ele>
        <time>2026-01-26T16:01:33Z</time>
      </trkpt>
      <trkpt lat="50.61978" lon="3.57743">
        <ele>79</ele>
        <time>2026-01-26T16:01:42Z</time>
      </trkpt>
      <trkpt lat="50.61961" lon="3.57414">
        <ele>76</ele>
        <time>2026-01-26T16:02:19Z</time>
      </trkpt>
      <trkpt lat="50.62023" lon="3.57339">
        <ele>76</ele>
        <time>2026-01-26T16:02:33Z</time>
      </trkpt>
      <trkpt lat="50.62094" lon="3.57231">
        <ele>73</ele>
        <time>2026-01-26T16:02:51Z</time>
      </trkpt>
      <trkpt lat="50.62104" lon="3.57214">
        <ele>73</ele>
        <time>2026-01-26T16:02:53Z</time>
      </trkpt>
      <trkpt lat="50.6211" lon="3.57197">
        <ele>73</ele>
        <time>2026-01-26T16:02:56Z</time>
      </trkpt>
      <trkpt lat="50.62111" lon="3.57184">
        <ele>73</ele>
        <time>2026-01-26T16:02:57Z</time>
      </trkpt>
      <trkpt lat="50.62108" lon="3.5707">
        <ele>72</ele>
        <time>2026-01-26T16:03:10Z</time>
      </trkpt>
      <trkpt lat="50.62103" lon="3.57009">
        <ele>72</ele>
        <time>2026-01-26T16:03:17Z</time>
      </trkpt>
      <trkpt lat="50.6209" lon="3.56938">
        <ele>73</ele>
        <time>2026-01-26T16:03:25Z</time>
      </trkpt>
      <trkpt lat="50.62066" lon="3.56849">
        <ele>73</ele>
        <time>2026-01-26T16:03:36Z</time>
      </trkpt>
      <trkpt lat="50.62061" lon="3.56816">
        <ele>72</ele>
        <time>2026-01-26T16:03:40Z</time>
      </trkpt>
      <trkpt lat="50.62061" lon="3.56794">
        <ele>72</ele>
        <time>2026-01-26T16:03:43Z</time>
      </trkpt>
      <trkpt lat="50.62066" lon="3.56768">
        <ele>72</ele>
        <time>2026-01-26T16:03:46Z</time>
      </trkpt>
      <trkpt lat="50.62071" lon="3.5675">
        <ele>73</ele>
        <time>2026-01-26T16:03:48Z</time>
      </trkpt>
      <trkpt lat="50.62084" lon="3.56723">
        <ele>73</ele>
        <time>2026-01-26T16:03:52Z</time>
      </trkpt>
      <trkpt lat="50.62098" lon="3.56706">
        <ele>73</ele>
        <time>2026-01-26T16:03:55Z</time>
      </trkpt>
      <trkpt lat="50.62129" lon="3.56675">
        <ele>74</ele>
        <time>2026-01-26T16:04:01Z</time>
      </trkpt>
      <trkpt lat="50.62187" lon="3.56629">
        <ele>75</ele>
        <time>2026-01-26T16:04:13Z</time>
      </trkpt>
      <trkpt lat="50.62201" lon="3.56606">
        <ele>75</ele>
        <time>2026-01-26T16:04:16Z</time>
      </trkpt>
      <trkpt lat="50.62242" lon="3.56519">
        <ele>77</ele>
        <time>2026-01-26T16:04:29Z</time>
      </trkpt>
      <trkpt lat="50.62263" lon="3.56431">
        <ele>77</ele>
        <time>2026-01-26T16:04:39Z</time>
      </trkpt>
      <trkpt lat="50.62303" lon="3.56316">
        <ele>75</ele>
        <time>2026-01-26T16:04:54Z</time>
      </trkpt>
      <trkpt lat="50.62337" lon="3.56102">
        <ele>72</ele>
        <time>2026-01-26T16:05:19Z</time>
      </trkpt>
      <trkpt lat="50.62347" lon="3.56058">
        <ele>72</ele>
        <time>2026-01-26T16:05:24Z</time>
      </trkpt>
      <trkpt lat="50.62406" lon="3.55945">
        <ele>73</ele>
        <time>2026-01-26T16:05:41Z</time>
      </trkpt>
      <trkpt lat="50.62459" lon="3.55824">
        <ele>73</ele>
        <time>2026-01-26T16:05:57Z</time>
      </trkpt>
      <trkpt lat="50.62509" lon="3.55696">
        <ele>72</ele>
        <time>2026-01-26T16:06:14Z</time>
      </trkpt>
      <trkpt lat="50.62619" lon="3.55437">
        <ele>76</ele>
        <time>2026-01-26T16:06:50Z</time>
      </trkpt>
      <trkpt lat="50.62666" lon="3.55347">
        <ele>79</ele>
        <time>2026-01-26T16:07:03Z</time>
      </trkpt>
      <trkpt lat="50.62706" lon="3.55249">
        <ele>81</ele>
        <time>2026-01-26T16:07:16Z</time>
      </trkpt>
      <trkpt lat="50.62748" lon="3.55143">
        <ele>81</ele>
        <time>2026-01-26T16:07:30Z</time>
      </trkpt>
      <trkpt lat="50.62733" lon="3.551">
        <ele>81</ele>
        <time>2026-01-26T16:07:36Z</time>
      </trkpt>
      <trkpt lat="50.62787" lon="3.55047">
        <ele>80</ele>
        <time>2026-01-26T16:07:47Z</time>
      </trkpt>
      <trkpt lat="50.62799" lon="3.55029">
        <ele>79</ele>
        <time>2026-01-26T16:07:50Z</time>
      </trkpt>
      <trkpt lat="50.62854" lon="3.5491">
        <ele>80</ele>
        <time>2026-01-26T16:08:06Z</time>
      </trkpt>
      <trkpt lat="50.62885" lon="3.54858">
        <ele>79</ele>
        <time>2026-01-26T16:08:14Z</time>
      </trkpt>
      <trkpt lat="50.62931" lon="3.54797">
        <ele>77</ele>
        <time>2026-01-26T16:08:25Z</time>
      </trkpt>
      <trkpt lat="50.62999" lon="3.54717">
        <ele>70</ele>
        <time>2026-01-26T16:08:40Z</time>
      </trkpt>
      <trkpt lat="50.63033" lon="3.54697">
        <ele>67</ele>
        <time>2026-01-26T16:08:47Z</time>
      </trkpt>
      <trkpt lat="50.6313" lon="3.54657">
        <ele>61</ele>
        <time>2026-01-26T16:09:05Z</time>
      </trkpt>
      <trkpt lat="50.63201" lon="3.54609">
        <ele>60</ele>
        <time>2026-01-26T16:09:18Z</time>
      </trkpt>
      <trkpt lat="50.63286" lon="3.54529">
        <ele>59</ele>
        <time>2026-01-26T16:09:36Z</time>
      </trkpt>
      <trkpt lat="50.63327" lon="3.54478">
        <ele>59</ele>
        <time>2026-01-26T16:09:45Z</time>
      </trkpt>
      <trkpt lat="50.63364" lon="3.54442">
        <ele>58</ele>
        <time>2026-01-26T16:09:53Z</time>
      </trkpt>
      <trkpt lat="50.63422" lon="3.54352">
        <ele>57</ele>
        <time>2026-01-26T16:10:07Z</time>
      </trkpt>
      <trkpt lat="50.63447" lon="3.54322">
        <ele>58</ele>
        <time>2026-01-26T16:10:13Z</time>
      </trkpt>
      <trkpt lat="50.63466" lon="3.54254">
        <ele>58</ele>
        <time>2026-01-26T16:10:21Z</time>
      </trkpt>
      <trkpt lat="50.63467" lon="3.54241">
        <ele>58</ele>
        <time>2026-01-26T16:10:23Z</time>
      </trkpt>
      <trkpt lat="50.63455" lon="3.54192">
        <ele>58</ele>
        <time>2026-01-26T16:10:29Z</time>
      </trkpt>
      <trkpt lat="50.63455" lon="3.5418">
        <ele>58</ele>
        <time>2026-01-26T16:10:30Z</time>
      </trkpt>
      <trkpt lat="50.63459" lon="3.54169">
        <ele>58</ele>
        <time>2026-01-26T16:10:32Z</time>
      </trkpt>
      <trkpt lat="50.63569" lon="3.54031">
        <ele>57</ele>
        <time>2026-01-26T16:10:57Z</time>
      </trkpt>
      <trkpt lat="50.63585" lon="3.54002">
        <ele>57</ele>
        <time>2026-01-26T16:11:01Z</time>
      </trkpt>
      <trkpt lat="50.63594" lon="3.5398">
        <ele>57</ele>
        <time>2026-01-26T16:11:04Z</time>
      </trkpt>
      <trkpt lat="50.63557" lon="3.53904">
        <ele>54</ele>
        <time>2026-01-26T16:11:15Z</time>
      </trkpt>
      <trkpt lat="50.63548" lon="3.53875">
        <ele>52</ele>
        <time>2026-01-26T16:11:18Z</time>
      </trkpt>
      <trkpt lat="50.63542" lon="3.53843">
        <ele>51</ele>
        <time>2026-01-26T16:11:22Z</time>
      </trkpt>
      <trkpt lat="50.6354" lon="3.53757">
        <ele>49</ele>
        <time>2026-01-26T16:11:32Z</time>
      </trkpt>
      <trkpt lat="50.63537" lon="3.53721">
        <ele>47</ele>
        <time>2026-01-26T16:11:36Z</time>
      </trkpt>
      <trkpt lat="50.63533" lon="3.53702">
        <ele>47</ele>
        <time>2026-01-26T16:11:38Z</time>
      </trkpt>
      <trkpt lat="50.63506" lon="3.53641">
        <ele>46</ele>
        <time>2026-01-26T16:11:47Z</time>
      </trkpt>
      <trkpt lat="50.6348" lon="3.53566">
        <ele>46</ele>
        <time>2026-01-26T16:11:56Z</time>
      </trkpt>
      <trkpt lat="50.63454" lon="3.53485">
        <ele>48</ele>
        <time>2026-01-26T16:12:06Z</time>
      </trkpt>
      <trkpt lat="50.63434" lon="3.53407">
        <ele>50</ele>
        <time>2026-01-26T16:12:16Z</time>
      </trkpt>
      <trkpt lat="50.63434" lon="3.53377">
        <ele>51</ele>
        <time>2026-01-26T16:12:19Z</time>
      </trkpt>
      <trkpt lat="50.63504" lon="3.53254">
        <ele>51</ele>
        <time>2026-01-26T16:12:38Z</time>
      </trkpt>
      <trkpt lat="50.63436" lon="3.53196">
        <ele>51</ele>
        <time>2026-01-26T16:12:52Z</time>
      </trkpt>
      <trkpt lat="50.6342" lon="3.53173">
        <ele>50</ele>
        <time>2026-01-26T16:12:56Z</time>
      </trkpt>
      <trkpt lat="50.6335" lon="3.52988">
        <ele>51</ele>
        <time>2026-01-26T16:13:20Z</time>
      </trkpt>
      <trkpt lat="50.6334" lon="3.52951">
        <ele>51</ele>
        <time>2026-01-26T16:13:24Z</time>
      </trkpt>
      <trkpt lat="50.63321" lon="3.52842">
        <ele>52</ele>
        <time>2026-01-26T16:13:37Z</time>
      </trkpt>
      <trkpt lat="50.63303" lon="3.52804">
        <ele>53</ele>
        <time>2026-01-26T16:13:43Z</time>
      </trkpt>
      <trkpt lat="50.63042" lon="3.52566">
        <ele>58</ele>
        <time>2026-01-26T16:14:36Z</time>
      </trkpt>
      <trkpt lat="50.63086" lon="3.52389">
        <ele>62</ele>
        <time>2026-01-26T16:14:58Z</time>
      </trkpt>
      <trkpt lat="50.63083" lon="3.52381">
        <ele>62</ele>
        <time>2026-01-26T16:14:59Z</time>
      </trkpt>
      <trkpt lat="50.63049" lon="3.52345">
        <ele>63</ele>
        <time>2026-01-26T16:15:06Z</time>
      </trkpt>
      <trkpt lat="50.6304" lon="3.52329">
        <ele>63</ele>
        <time>2026-01-26T16:15:08Z</time>
      </trkpt>
      <trkpt lat="50.62993" lon="3.52069">
        <ele>73</ele>
        <time>2026-01-26T16:15:39Z</time>
      </trkpt>
      <trkpt lat="50.62992" lon="3.52048">
        <ele>74</ele>
        <time>2026-01-26T16:15:41Z</time>
      </trkpt>
      <trkpt lat="50.62995" lon="3.52035">
        <ele>74</ele>
        <time>2026-01-26T16:15:43Z</time>
      </trkpt>
      <trkpt lat="50.63001" lon="3.52023">
        <ele>74</ele>
        <time>2026-01-26T16:15:45Z</time>
      </trkpt>
      <trkpt lat="50.63013" lon="3.52013">
        <ele>74</ele>
        <time>2026-01-26T16:15:47Z</time>
      </trkpt>
      <trkpt lat="50.63182" lon="3.51882">
        <ele>77</ele>
        <time>2026-01-26T16:16:21Z</time>
      </trkpt>
      <trkpt lat="50.63218" lon="3.51868">
        <ele>79</ele>
        <time>2026-01-26T16:16:27Z</time>
      </trkpt>
      <trkpt lat="50.63238" lon="3.51855">
        <ele>81</ele>
        <time>2026-01-26T16:16:31Z</time>
      </trkpt>
      <trkpt lat="50.63242" lon="3.51844">
        <ele>82</ele>
        <time>2026-01-26T16:16:32Z</time>
      </trkpt>
      <trkpt lat="50.63242" lon="3.5183">
        <ele>84</ele>
        <time>2026-01-26T16:16:34Z</time>
      </trkpt>
      <trkpt lat="50.63213" lon="3.51746">
        <ele>86</ele>
        <time>2026-01-26T16:16:45Z</time>
      </trkpt>
      <trkpt lat="50.63209" lon="3.51725">
        <ele>87</ele>
        <time>2026-01-26T16:16:47Z</time>
      </trkpt>
      <trkpt lat="50.63212" lon="3.51663">
        <ele>90</ele>
        <time>2026-01-26T16:16:54Z</time>
      </trkpt>
      <trkpt lat="50.63223" lon="3.51592">
        <ele>92</ele>
        <time>2026-01-26T16:17:03Z</time>
      </trkpt>
      <trkpt lat="50.63233" lon="3.51564">
        <ele>93</ele>
        <time>2026-01-26T16:17:06Z</time>
      </trkpt>
      <trkpt lat="50.63296" lon="3.51444">
        <ele>86</ele>
        <time>2026-01-26T16:17:24Z</time>
      </trkpt>
      <trkpt lat="50.63302" lon="3.51409">
        <ele>84</ele>
        <time>2026-01-26T16:17:28Z</time>
      </trkpt>
      <trkpt lat="50.63328" lon="3.51335">
        <ele>78</ele>
        <time>2026-01-26T16:17:37Z</time>
      </trkpt>
      <trkpt lat="50.63363" lon="3.51151">
        <ele>77</ele>
        <time>2026-01-26T16:17:59Z</time>
      </trkpt>
      <trkpt lat="50.63363" lon="3.51137">
        <ele>77</ele>
        <time>2026-01-26T16:18:01Z</time>
      </trkpt>
      <trkpt lat="50.63341" lon="3.511">
        <ele>77</ele>
        <time>2026-01-26T16:18:06Z</time>
      </trkpt>
      <trkpt lat="50.63351" lon="3.51098">
        <ele>77</ele>
        <time>2026-01-26T16:18:08Z</time>
      </trkpt>
      <trkpt lat="50.63369" lon="3.51084">
        <ele>77</ele>
        <time>2026-01-26T16:18:12Z</time>
      </trkpt>
      <trkpt lat="50.63446" lon="3.50979">
        <ele>76</ele>
        <time>2026-01-26T16:18:30Z</time>
      </trkpt>
      <trkpt lat="50.63458" lon="3.50972">
        <ele>76</ele>
        <time>2026-01-26T16:18:32Z</time>
      </trkpt>
      <trkpt lat="50.63452" lon="3.50947">
        <ele>75</ele>
        <time>2026-01-26T16:18:35Z</time>
      </trkpt>
      <trkpt lat="50.63449" lon="3.5088">
        <ele>74</ele>
        <time>2026-01-26T16:18:43Z</time>
      </trkpt>
      <trkpt lat="50.63445" lon="3.50856">
        <ele>74</ele>
        <time>2026-01-26T16:18:45Z</time>
      </trkpt>
      <trkpt lat="50.63423" lon="3.50811">
        <ele>74</ele>
        <time>2026-01-26T16:18:52Z</time>
      </trkpt>
      <trkpt lat="50.63346" lon="3.50746">
        <ele>77</ele>
        <time>2026-01-26T16:19:07Z</time>
      </trkpt>
      <trkpt lat="50.63301" lon="3.507">
        <ele>76</ele>
        <time>2026-01-26T16:19:17Z</time>
      </trkpt>
      <trkpt lat="50.63346" lon="3.50562">
        <ele>69</ele>
        <time>2026-01-26T16:19:35Z</time>
      </trkpt>
      <trkpt lat="50.63354" lon="3.50546">
        <ele>69</ele>
        <time>2026-01-26T16:19:37Z</time>
      </trkpt>
      <trkpt lat="50.63384" lon="3.50505">
        <ele>69</ele>
        <time>2026-01-26T16:19:44Z</time>
      </trkpt>
      <trkpt lat="50.63392" lon="3.50487">
        <ele>70</ele>
        <time>2026-01-26T16:19:46Z</time>
      </trkpt>
      <trkpt lat="50.63395" lon="3.50474">
        <ele>70</ele>
        <time>2026-01-26T16:19:48Z</time>
      </trkpt>
      <trkpt lat="50.63406" lon="3.5035">
        <ele>72</ele>
        <time>2026-01-26T16:20:02Z</time>
      </trkpt>
      <trkpt lat="50.63416" lon="3.50324">
        <ele>73</ele>
        <time>2026-01-26T16:20:05Z</time>
      </trkpt>
      <trkpt lat="50.63456" lon="3.5027">
        <ele>73</ele>
        <time>2026-01-26T16:20:15Z</time>
      </trkpt>
      <trkpt lat="50.63488" lon="3.50237">
        <ele>73</ele>
        <time>2026-01-26T16:20:22Z</time>
      </trkpt>
      <trkpt lat="50.63497" lon="3.50238">
        <ele>73</ele>
        <time>2026-01-26T16:20:23Z</time>
      </trkpt>
      <trkpt lat="50.63526" lon="3.50252">
        <ele>72</ele>
        <time>2026-01-26T16:20:29Z</time>
      </trkpt>
      <trkpt lat="50.63551" lon="3.50256">
        <ele>71</ele>
        <time>2026-01-26T16:20:33Z</time>
      </trkpt>
      <trkpt lat="50.63566" lon="3.50253">
        <ele>71</ele>
        <time>2026-01-26T16:20:36Z</time>
      </trkpt>
      <trkpt lat="50.63579" lon="3.5024">
        <ele>70</ele>
        <time>2026-01-26T16:20:39Z</time>
      </trkpt>
      <trkpt lat="50.63593" lon="3.50218">
        <ele>70</ele>
        <time>2026-01-26T16:20:42Z</time>
      </trkpt>
      <trkpt lat="50.63614" lon="3.50169">
        <ele>69</ele>
        <time>2026-01-26T16:20:49Z</time>
      </trkpt>
      <trkpt lat="50.63646" lon="3.50081">
        <ele>67</ele>
        <time>2026-01-26T16:21:00Z</time>
      </trkpt>
      <trkpt lat="50.6368" lon="3.49919">
        <ele>62</ele>
        <time>2026-01-26T16:21:19Z</time>
      </trkpt>
      <trkpt lat="50.63704" lon="3.49906">
        <ele>61</ele>
        <time>2026-01-26T16:21:24Z</time>
      </trkpt>
      <trkpt lat="50.63776" lon="3.49844">
        <ele>60</ele>
        <time>2026-01-26T16:21:39Z</time>
      </trkpt>
      <trkpt lat="50.63851" lon="3.49775">
        <ele>56</ele>
        <time>2026-01-26T16:21:54Z</time>
      </trkpt>
      <trkpt lat="50.63866" lon="3.49767">
        <ele>56</ele>
        <time>2026-01-26T16:21:57Z</time>
      </trkpt>
      <trkpt lat="50.63957" lon="3.49737">
        <ele>53</ele>
        <time>2026-01-26T16:22:13Z</time>
      </trkpt>
      <trkpt lat="50.64049" lon="3.49664">
        <ele>50</ele>
        <time>2026-01-26T16:22:32Z</time>
      </trkpt>
      <trkpt lat="50.64088" lon="3.4964">
        <ele>49</ele>
        <time>2026-01-26T16:22:39Z</time>
      </trkpt>
      <trkpt lat="50.64101" lon="3.49626">
        <ele>49</ele>
        <time>2026-01-26T16:22:42Z</time>
      </trkpt>
      <trkpt lat="50.64141" lon="3.49572">
        <ele>48</ele>
        <time>2026-01-26T16:22:51Z</time>
      </trkpt>
      <trkpt lat="50.64143" lon="3.49566">
        <ele>48</ele>
        <time>2026-01-26T16:22:52Z</time>
      </trkpt>
      <trkpt lat="50.64142" lon="3.49551">
        <ele>48</ele>
        <time>2026-01-26T16:22:54Z</time>
      </trkpt>
      <trkpt lat="50.64115" lon="3.49511">
        <ele>49</ele>
        <time>2026-01-26T16:23:00Z</time>
      </trkpt>
      <trkpt lat="50.64063" lon="3.4941">
        <ele>49</ele>
        <time>2026-01-26T16:23:15Z</time>
      </trkpt>
      <trkpt lat="50.64051" lon="3.49381">
        <ele>49</ele>
        <time>2026-01-26T16:23:19Z</time>
      </trkpt>
      <trkpt lat="50.64036" lon="3.49298">
        <ele>50</ele>
        <time>2026-01-26T16:23:29Z</time>
      </trkpt>
      <trkpt lat="50.64022" lon="3.49252">
        <ele>51</ele>
        <time>2026-01-26T16:23:34Z</time>
      </trkpt>
      <trkpt lat="50.64019" lon="3.49234">
        <ele>51</ele>
        <time>2026-01-26T16:23:37Z</time>
      </trkpt>
      <trkpt lat="50.64018" lon="3.49221">
        <ele>52</ele>
        <time>2026-01-26T16:23:38Z</time>
      </trkpt>
      <trkpt lat="50.64022" lon="3.49202">
        <ele>52</ele>
        <time>2026-01-26T16:23:40Z</time>
      </trkpt>
      <trkpt lat="50.64072" lon="3.49142">
        <ele>53</ele>
        <time>2026-01-26T16:23:51Z</time>
      </trkpt>
      <trkpt lat="50.6415" lon="3.49062">
        <ele>53</ele>
        <time>2026-01-26T16:24:08Z</time>
      </trkpt>
      <trkpt lat="50.6417" lon="3.49037">
        <ele>54</ele>
        <time>2026-01-26T16:24:13Z</time>
      </trkpt>
      <trkpt lat="50.64174" lon="3.49015">
        <ele>54</ele>
        <time>2026-01-26T16:24:15Z</time>
      </trkpt>
      <trkpt lat="50.64145" lon="3.48966">
        <ele>56</ele>
        <time>2026-01-26T16:24:23Z</time>
      </trkpt>
      <trkpt lat="50.64143" lon="3.48956">
        <ele>56</ele>
        <time>2026-01-26T16:24:24Z</time>
      </trkpt>
      <trkpt lat="50.64144" lon="3.48945">
        <ele>56</ele>
        <time>2026-01-26T16:24:25Z</time>
      </trkpt>
      <trkpt lat="50.64148" lon="3.48934">
        <ele>56</ele>
        <time>2026-01-26T16:24:27Z</time>
      </trkpt>
      <trkpt lat="50.64213" lon="3.48801">
        <ele>55</ele>
        <time>2026-01-26T16:24:46Z</time>
      </trkpt>
      <trkpt lat="50.64235" lon="3.48761">
        <ele>55</ele>
        <time>2026-01-26T16:24:51Z</time>
      </trkpt>
      <trkpt lat="50.6429" lon="3.4868">
        <ele>56</ele>
        <time>2026-01-26T16:25:05Z</time>
      </trkpt>
      <trkpt lat="50.64336" lon="3.48601">
        <ele>57</ele>
        <time>2026-01-26T16:25:17Z</time>
      </trkpt>
      <trkpt lat="50.64458" lon="3.4838">
        <ele>64</ele>
        <time>2026-01-26T16:25:50Z</time>
      </trkpt>
      <trkpt lat="50.64394" lon="3.48272">
        <ele>67</ele>
        <time>2026-01-26T16:26:07Z</time>
      </trkpt>
      <trkpt lat="50.64333" lon="3.48143">
        <ele>66</ele>
        <time>2026-01-26T16:26:25Z</time>
      </trkpt>
      <trkpt lat="50.64311" lon="3.48082">
        <ele>64</ele>
        <time>2026-01-26T16:26:33Z</time>
      </trkpt>
      <trkpt lat="50.64273" lon="3.47945">
        <ele>60</ele>
        <time>2026-01-26T16:26:50Z</time>
      </trkpt>
      <trkpt lat="50.64194" lon="3.47785">
        <ele>61</ele>
        <time>2026-01-26T16:27:13Z</time>
      </trkpt>
      <trkpt lat="50.64183" lon="3.47753">
        <ele>60</ele>
        <time>2026-01-26T16:27:17Z</time>
      </trkpt>
      <trkpt lat="50.64145" lon="3.47583">
        <ele>63</ele>
        <time>2026-01-26T16:27:37Z</time>
      </trkpt>
      <trkpt lat="50.64088" lon="3.47425">
        <ele>68</ele>
        <time>2026-01-26T16:27:58Z</time>
      </trkpt>
      <trkpt lat="50.63971" lon="3.47438">
        <ele>64</ele>
        <time>2026-01-26T16:28:18Z</time>
      </trkpt>
      <trkpt lat="50.63563" lon="3.47498">
        <ele>49</ele>
        <time>2026-01-26T16:29:31Z</time>
      </trkpt>
      <trkpt lat="50.63547" lon="3.47489">
        <ele>49</ele>
        <time>2026-01-26T16:29:34Z</time>
      </trkpt>
      <trkpt lat="50.63525" lon="3.47467">
        <ele>48</ele>
        <time>2026-01-26T16:29:39Z</time>
      </trkpt>
      <trkpt lat="50.63355" lon="3.4726">
        <ele>46</ele>
        <time>2026-01-26T16:30:17Z</time>
      </trkpt>
      <trkpt lat="50.6334" lon="3.47255">
        <ele>46</ele>
        <time>2026-01-26T16:30:20Z</time>
      </trkpt>
      <trkpt lat="50.63323" lon="3.47257">
        <ele>46</ele>
        <time>2026-01-26T16:30:23Z</time>
      </trkpt>
      <trkpt lat="50.63179" lon="3.47347">
        <ele>44</ele>
        <time>2026-01-26T16:30:50Z</time>
      </trkpt>
      <trkpt lat="50.6314" lon="3.47365">
        <ele>43</ele>
        <time>2026-01-26T16:30:58Z</time>
      </trkpt>
      <trkpt lat="50.63103" lon="3.47371">
        <ele>44</ele>
        <time>2026-01-26T16:31:04Z</time>
      </trkpt>
      <trkpt lat="50.62977" lon="3.47377">
        <ele>47</ele>
        <time>2026-01-26T16:31:27Z</time>
      </trkpt>
      <trkpt lat="50.62948" lon="3.4737">
        <ele>48</ele>
        <time>2026-01-26T16:31:32Z</time>
      </trkpt>
      <trkpt lat="50.62924" lon="3.47353">
        <ele>49</ele>
        <time>2026-01-26T16:31:37Z</time>
      </trkpt>
      <trkpt lat="50.62906" lon="3.47336">
        <ele>50</ele>
        <time>2026-01-26T16:31:40Z</time>
      </trkpt>
      <trkpt lat="50.62845" lon="3.47265">
        <ele>54</ele>
        <time>2026-01-26T16:31:54Z</time>
      </trkpt>
      <trkpt lat="50.62798" lon="3.47232">
        <ele>56</ele>
        <time>2026-01-26T16:32:03Z</time>
      </trkpt>
      <trkpt lat="50.62739" lon="3.47195">
        <ele>58</ele>
        <time>2026-01-26T16:32:14Z</time>
      </trkpt>
      <trkpt lat="50.62617" lon="3.47102">
        <ele>59</ele>
        <time>2026-01-26T16:32:38Z</time>
      </trkpt>
      <trkpt lat="50.624" lon="3.47011">
        <ele>51</ele>
        <time>2026-01-26T16:33:18Z</time>
      </trkpt>
      <trkpt lat="50.62385" lon="3.46997">
        <ele>50</ele>
        <time>2026-01-26T16:33:22Z</time>
      </trkpt>
      <trkpt lat="50.623" lon="3.46811">
        <ele>43</ele>
        <time>2026-01-26T16:33:47Z</time>
      </trkpt>
      <trkpt lat="50.62282" lon="3.46787">
        <ele>42</ele>
        <time>2026-01-26T16:33:52Z</time>
      </trkpt>
      <trkpt lat="50.62221" lon="3.46744">
        <ele>41</ele>
        <time>2026-01-26T16:34:03Z</time>
      </trkpt>
      <trkpt lat="50.62168" lon="3.46724">
        <ele>40</ele>
        <time>2026-01-26T16:34:13Z</time>
      </trkpt>
      <trkpt lat="50.62138" lon="3.46721">
        <ele>39</ele>
        <time>2026-01-26T16:34:19Z</time>
      </trkpt>
      <trkpt lat="50.62104" lon="3.46721">
        <ele>37</ele>
        <time>2026-01-26T16:34:25Z</time>
      </trkpt>
      <trkpt lat="50.6206" lon="3.46732">
        <ele>36</ele>
        <time>2026-01-26T16:34:32Z</time>
      </trkpt>
      <trkpt lat="50.62024" lon="3.46744">
        <ele>35</ele>
        <time>2026-01-26T16:34:39Z</time>
      </trkpt>
      <trkpt lat="50.61963" lon="3.46752">
        <ele>32</ele>
        <time>2026-01-26T16:34:50Z</time>
      </trkpt>
      <trkpt lat="50.61938" lon="3.46884">
        <ele>31</ele>
        <time>2026-01-26T16:35:05Z</time>
      </trkpt>
      <trkpt lat="50.61933" lon="3.46895">
        <ele>30</ele>
        <time>2026-01-26T16:35:07Z</time>
      </trkpt>
      <trkpt lat="50.61917" lon="3.46904">
        <ele>29</ele>
        <time>2026-01-26T16:35:10Z</time>
      </trkpt>
      <trkpt lat="50.61883" lon="3.46905">
        <ele>28</ele>
        <time>2026-01-26T16:35:16Z</time>
      </trkpt>
      <trkpt lat="50.61877" lon="3.46911">
        <ele>28</ele>
        <time>2026-01-26T16:35:17Z</time>
      </trkpt>
      <trkpt lat="50.61872" lon="3.46926">
        <ele>27</ele>
        <time>2026-01-26T16:35:19Z</time>
      </trkpt>
      <trkpt lat="50.6186" lon="3.46934">
        <ele>27</ele>
        <time>2026-01-26T16:35:22Z</time>
      </trkpt>
      <trkpt lat="50.61858" lon="3.46943">
        <ele>27</ele>
        <time>2026-01-26T16:35:23Z</time>
      </trkpt>
      <trkpt lat="50.61847" lon="3.46942">
        <ele>27</ele>
        <time>2026-01-26T16:35:25Z</time>
      </trkpt>
      <trkpt lat="50.61829" lon="3.46921">
        <ele>26</ele>
        <time>2026-01-26T16:35:29Z</time>
      </trkpt>
      <trkpt lat="50.61801" lon="3.46877">
        <ele>25</ele>
        <time>2026-01-26T16:35:36Z</time>
      </trkpt>
      <trkpt lat="50.61779" lon="3.46853">
        <ele>25</ele>
        <time>2026-01-26T16:35:40Z</time>
      </trkpt>
      <trkpt lat="50.61698" lon="3.4682">
        <ele>26</ele>
        <time>2026-01-26T16:35:55Z</time>
      </trkpt>
      <trkpt lat="50.6169" lon="3.46761">
        <ele>27</ele>
        <time>2026-01-26T16:36:02Z</time>
      </trkpt>
      <trkpt lat="50.61691" lon="3.46707">
        <ele>28</ele>
        <time>2026-01-26T16:36:08Z</time>
      </trkpt>
      <trkpt lat="50.61693" lon="3.4667">
        <ele>28</ele>
        <time>2026-01-26T16:36:12Z</time>
      </trkpt>
      <trkpt lat="50.61707" lon="3.46566">
        <ele>27</ele>
        <time>2026-01-26T16:36:24Z</time>
      </trkpt>
      <trkpt lat="50.6171" lon="3.4651">
        <ele>27</ele>
        <time>2026-01-26T16:36:31Z</time>
      </trkpt>
      <trkpt lat="50.61711" lon="3.46421">
        <ele>27</ele>
        <time>2026-01-26T16:36:41Z</time>
      </trkpt>
      <trkpt lat="50.61709" lon="3.46401">
        <ele>27</ele>
        <time>2026-01-26T16:36:43Z</time>
      </trkpt>
      <trkpt lat="50.61713" lon="3.46384">
        <ele>27</ele>
        <time>2026-01-26T16:36:45Z</time>
      </trkpt>
      <trkpt lat="50.61716" lon="3.46345">
        <ele>27</ele>
        <time>2026-01-26T16:36:50Z</time>
      </trkpt>
      <trkpt lat="50.61716" lon="3.46271">
        <ele>27</ele>
        <time>2026-01-26T16:36:58Z</time>
      </trkpt>
      <trkpt lat="50.61724" lon="3.4619">
        <ele>26</ele>
        <time>2026-01-26T16:37:07Z</time>
      </trkpt>
      <trkpt lat="50.61721" lon="3.46163">
        <ele>26</ele>
        <time>2026-01-26T16:37:10Z</time>
      </trkpt>
      <trkpt lat="50.61715" lon="3.46151">
        <ele>27</ele>
        <time>2026-01-26T16:37:12Z</time>
      </trkpt>
      <trkpt lat="50.61686" lon="3.46111">
        <ele>28</ele>
        <time>2026-01-26T16:37:19Z</time>
      </trkpt>
      <trkpt lat="50.61682" lon="3.46089">
        <ele>28</ele>
        <time>2026-01-26T16:37:21Z</time>
      </trkpt>
      <trkpt lat="50.61681" lon="3.45948">
        <ele>27</ele>
        <time>2026-01-26T16:37:37Z</time>
      </trkpt>
      <trkpt lat="50.61667" lon="3.45777">
        <ele>27</ele>
        <time>2026-01-26T16:37:57Z</time>
      </trkpt>
      <trkpt lat="50.61644" lon="3.45606">
        <ele>25</ele>
        <time>2026-01-26T16:38:17Z</time>
      </trkpt>
      <trkpt lat="50.61641" lon="3.45557">
        <ele>25</ele>
        <time>2026-01-26T16:38:22Z</time>
      </trkpt>
      <trkpt lat="50.61649" lon="3.45522">
        <ele>25</ele>
        <time>2026-01-26T16:38:26Z</time>
      </trkpt>
      <trkpt lat="50.61665" lon="3.45502">
        <ele>25</ele>
        <time>2026-01-26T16:38:30Z</time>
      </trkpt>
      <trkpt lat="50.61743" lon="3.45429">
        <ele>24</ele>
        <time>2026-01-26T16:38:46Z</time>
      </trkpt>
      <trkpt lat="50.61791" lon="3.45369">
        <ele>22</ele>
        <time>2026-01-26T16:38:57Z</time>
      </trkpt>
      <trkpt lat="50.61811" lon="3.45349">
        <ele>22</ele>
        <time>2026-01-26T16:39:01Z</time>
      </trkpt>
      <trkpt lat="50.61888" lon="3.45389">
        <ele>23</ele>
        <time>2026-01-26T16:39:16Z</time>
      </trkpt>
      <trkpt lat="50.61953" lon="3.45449">
        <ele>23</ele>
        <time>2026-01-26T16:39:29Z</time>
      </trkpt>
      <trkpt lat="50.61967" lon="3.45458">
        <ele>23</ele>
        <time>2026-01-26T16:39:32Z</time>
      </trkpt>
      <trkpt lat="50.62061" lon="3.45448">
        <ele>25</ele>
        <time>2026-01-26T16:39:48Z</time>
      </trkpt>
      <trkpt lat="50.62076" lon="3.45455">
        <ele>26</ele>
        <time>2026-01-26T16:39:51Z</time>
      </trkpt>
      <trkpt lat="50.62097" lon="3.45344">
        <ele>25</ele>
        <time>2026-01-26T16:40:04Z</time>
      </trkpt>
      <trkpt lat="50.6211" lon="3.45313">
        <ele>26</ele>
        <time>2026-01-26T16:40:09Z</time>
      </trkpt>
      <trkpt lat="50.62144" lon="3.4525">
        <ele>29</ele>
        <time>2026-01-26T16:40:18Z</time>
      </trkpt>
      <trkpt lat="50.62148" lon="3.45217">
        <ele>30</ele>
        <time>2026-01-26T16:40:22Z</time>
      </trkpt>
      <trkpt lat="50.62135" lon="3.45153">
        <ele>31</ele>
        <time>2026-01-26T16:40:29Z</time>
      </trkpt>
      <trkpt lat="50.62138" lon="3.45048">
        <ele>32</ele>
        <time>2026-01-26T16:40:41Z</time>
      </trkpt>
      <trkpt lat="50.62132" lon="3.44994">
        <ele>32</ele>
        <time>2026-01-26T16:40:47Z</time>
      </trkpt>
      <trkpt lat="50.62092" lon="3.44808">
        <ele>28</ele>
        <time>2026-01-26T16:41:09Z</time>
      </trkpt>
      <trkpt lat="50.62053" lon="3.44349">
        <ele>23</ele>
        <time>2026-01-26T16:42:02Z</time>
      </trkpt>
      <trkpt lat="50.61981" lon="3.44126">
        <ele>22</ele>
        <time>2026-01-26T16:42:30Z</time>
      </trkpt>
      <trkpt lat="50.61973" lon="3.44095">
        <ele>22</ele>
        <time>2026-01-26T16:42:34Z</time>
      </trkpt>
      <trkpt lat="50.61969" lon="3.44061">
        <ele>22</ele>
        <time>2026-01-26T16:42:38Z</time>
      </trkpt>
      <trkpt lat="50.61968" lon="3.44012">
        <ele>22</ele>
        <time>2026-01-26T16:42:43Z</time>
      </trkpt>
      <trkpt lat="50.61991" lon="3.43821">
        <ele>25</ele>
        <time>2026-01-26T16:43:05Z</time>
      </trkpt>
      <trkpt lat="50.61989" lon="3.43689">
        <ele>26</ele>
        <time>2026-01-26T16:43:20Z</time>
      </trkpt>
      <trkpt lat="50.61944" lon="3.4367">
        <ele>22</ele>
        <time>2026-01-26T16:43:28Z</time>
      </trkpt>
      <trkpt lat="50.61924" lon="3.43659">
        <ele>21</ele>
        <time>2026-01-26T16:43:32Z</time>
      </trkpt>
      <trkpt lat="50.61908" lon="3.4364">
        <ele>20</ele>
        <time>2026-01-26T16:43:36Z</time>
      </trkpt>
      <trkpt lat="50.61883" lon="3.43577">
        <ele>21</ele>
        <time>2026-01-26T16:43:44Z</time>
      </trkpt>
      <trkpt lat="50.6187" lon="3.43589">
        <ele>20</ele>
        <time>2026-01-26T16:43:47Z</time>
      </trkpt>
      <trkpt lat="50.61857" lon="3.43632">
        <ele>20</ele>
        <time>2026-01-26T16:43:52Z</time>
      </trkpt>
      <trkpt lat="50.61839" lon="3.43658">
        <ele>20</ele>
        <time>2026-01-26T16:43:56Z</time>
      </trkpt>
      <trkpt lat="50.61823" lon="3.43676">
        <ele>20</ele>
        <time>2026-01-26T16:44:00Z</time>
      </trkpt>
      <trkpt lat="50.61783" lon="3.43701">
        <ele>20</ele>
        <time>2026-01-26T16:44:08Z</time>
      </trkpt>
      <trkpt lat="50.61717" lon="3.43703">
        <ele>21</ele>
        <time>2026-01-26T16:44:19Z</time>
      </trkpt>
      <trkpt lat="50.61699" lon="3.43708">
        <ele>20</ele>
        <time>2026-01-26T16:44:23Z</time>
      </trkpt>
      <trkpt lat="50.6152" lon="3.43837">
        <ele>22</ele>
        <time>2026-01-26T16:44:58Z</time>
      </trkpt>
      <trkpt lat="50.61497" lon="3.43687">
        <ele>23</ele>
        <time>2026-01-26T16:45:15Z</time>
      </trkpt>
      <trkpt lat="50.61484" lon="3.43626">
        <ele>23</ele>
        <time>2026-01-26T16:45:22Z</time>
      </trkpt>
      <trkpt lat="50.61467" lon="3.43564">
        <ele>23</ele>
        <time>2026-01-26T16:45:30Z</time>
      </trkpt>
      <trkpt lat="50.61422" lon="3.43465">
        <ele>24</ele>
        <time>2026-01-26T16:45:44Z</time>
      </trkpt>
      <trkpt lat="50.61386" lon="3.43334">
        <ele>22</ele>
        <time>2026-01-26T16:46:00Z</time>
      </trkpt>
      <trkpt lat="50.61272" lon="3.42834">
        <ele>22</ele>
        <time>2026-01-26T16:47:00Z</time>
      </trkpt>
      <trkpt lat="50.61242" lon="3.42747">
        <ele>23</ele>
        <time>2026-01-26T16:47:11Z</time>
      </trkpt>
      <trkpt lat="50.61198" lon="3.42647">
        <ele>20</ele>
        <time>2026-01-26T16:47:25Z</time>
      </trkpt>
      <trkpt lat="50.61068" lon="3.42412">
        <ele>18</ele>
        <time>2026-01-26T16:48:00Z</time>
      </trkpt>
      <trkpt lat="50.61014" lon="3.42297">
        <ele>19</ele>
        <time>2026-01-26T16:48:16Z</time>
      </trkpt>
      <trkpt lat="50.60961" lon="3.42222">
        <ele>19</ele>
        <time>2026-01-26T16:48:29Z</time>
      </trkpt>
      <trkpt lat="50.60934" lon="3.42174">
        <ele>18</ele>
        <time>2026-01-26T16:48:36Z</time>
      </trkpt>
      <trkpt lat="50.60909" lon="3.42123">
        <ele>18</ele>
        <time>2026-01-26T16:48:43Z</time>
      </trkpt>
      <trkpt lat="50.60866" lon="3.41998">
        <ele>19</ele>
        <time>2026-01-26T16:48:59Z</time>
      </trkpt>
      <trkpt lat="50.60858" lon="3.41947">
        <ele>18</ele>
        <time>2026-01-26T16:49:05Z</time>
      </trkpt>
      <trkpt lat="50.60856" lon="3.41859">
        <ele>18</ele>
        <time>2026-01-26T16:49:15Z</time>
      </trkpt>
      <trkpt lat="50.60852" lon="3.41816">
        <ele>19</ele>
        <time>2026-01-26T16:49:20Z</time>
      </trkpt>
      <trkpt lat="50.60719" lon="3.41546">
        <ele>19</ele>
        <time>2026-01-26T16:49:59Z</time>
      </trkpt>
      <trkpt lat="50.60703" lon="3.41548">
        <ele>19</ele>
        <time>2026-01-26T16:50:02Z</time>
      </trkpt>
      <trkpt lat="50.60684" lon="3.41582">
        <ele>18</ele>
        <time>2026-01-26T16:50:07Z</time>
      </trkpt>
      <trkpt lat="50.60635" lon="3.41639">
        <ele>20</ele>
        <time>2026-01-26T16:50:18Z</time>
      </trkpt>
      <trkpt lat="50.60611" lon="3.41647">
        <ele>22</ele>
        <time>2026-01-26T16:50:22Z</time>
      </trkpt>
      <trkpt lat="50.60423" lon="3.41548">
        <ele>29</ele>
        <time>2026-01-26T16:50:57Z</time>
      </trkpt>
      <trkpt lat="50.60368" lon="3.41532">
        <ele>31</ele>
        <time>2026-01-26T16:51:07Z</time>
      </trkpt>
      <trkpt lat="50.60333" lon="3.41517">
        <ele>32</ele>
        <time>2026-01-26T16:51:14Z</time>
      </trkpt>
      <trkpt lat="50.60195" lon="3.41402">
        <ele>27</ele>
        <time>2026-01-26T16:51:41Z</time>
      </trkpt>
      <trkpt lat="50.60163" lon="3.41355">
        <ele>25</ele>
        <time>2026-01-26T16:51:49Z</time>
      </trkpt>
      <trkpt lat="50.60126" lon="3.41312">
        <ele>25</ele>
        <time>2026-01-26T16:51:57Z</time>
      </trkpt>
      <trkpt lat="50.60106" lon="3.41304">
        <ele>25</ele>
        <time>2026-01-26T16:52:01Z</time>
      </trkpt>
      <trkpt lat="50.60031" lon="3.41291">
        <ele>26</ele>
        <time>2026-01-26T16:52:14Z</time>
      </trkpt>
      <trkpt lat="50.59993" lon="3.41296">
        <ele>27</ele>
        <time>2026-01-26T16:52:21Z</time>
      </trkpt>
      <trkpt lat="50.5999" lon="3.41283">
        <ele>26</ele>
        <time>2026-01-26T16:52:23Z</time>
      </trkpt>
      <trkpt lat="50.59984" lon="3.41281">
        <ele>26</ele>
        <time>2026-01-26T16:52:24Z</time>
      </trkpt>
      <trkpt lat="50.59977" lon="3.41287">
        <ele>26</ele>
        <time>2026-01-26T16:52:25Z</time>
      </trkpt>
      <trkpt lat="50.59977" lon="3.41299">
        <ele>27</ele>
        <time>2026-01-26T16:52:27Z</time>
      </trkpt>
      <trkpt lat="50.59982" lon="3.41307">
        <ele>27</ele>
        <time>2026-01-26T16:52:28Z</time>
      </trkpt>
      <trkpt lat="50.59973" lon="3.4139">
        <ele>28</ele>
        <time>2026-01-26T16:52:37Z</time>
      </trkpt>
      <trkpt lat="50.59971" lon="3.41494">
        <ele>29</ele>
        <time>2026-01-26T16:52:49Z</time>
      </trkpt>
      <trkpt lat="50.59966" lon="3.41523">
        <ele>28</ele>
        <time>2026-01-26T16:52:53Z</time>
      </trkpt>
      <trkpt lat="50.59962" lon="3.41532">
        <ele>28</ele>
        <time>2026-01-26T16:52:54Z</time>
      </trkpt>
      <trkpt lat="50.59922" lon="3.41597">
        <ele>23</ele>
        <time>2026-01-26T16:53:04Z</time>
      </trkpt>
      <trkpt lat="50.59718" lon="3.41909">
        <ele>25</ele>
        <time>2026-01-26T16:53:55Z</time>
      </trkpt>
      <trkpt lat="50.59546" lon="3.42164">
        <ele>25</ele>
        <time>2026-01-26T16:54:37Z</time>
      </trkpt>
      <trkpt lat="50.5949" lon="3.42239">
        <ele>30</ele>
        <time>2026-01-26T16:54:50Z</time>
      </trkpt>
      <trkpt lat="50.59478" lon="3.42261">
        <ele>31</ele>
        <time>2026-01-26T16:54:53Z</time>
      </trkpt>
      <trkpt lat="50.5944" lon="3.42346">
        <ele>33</ele>
        <time>2026-01-26T16:55:05Z</time>
      </trkpt>
      <trkpt lat="50.59404" lon="3.42449">
        <ele>29</ele>
        <time>2026-01-26T16:55:18Z</time>
      </trkpt>
      <trkpt lat="50.59324" lon="3.42631">
        <ele>25</ele>
        <time>2026-01-26T16:55:43Z</time>
      </trkpt>
      <trkpt lat="50.59317" lon="3.42634">
        <ele>25</ele>
        <time>2026-01-26T16:55:44Z</time>
      </trkpt>
      <trkpt lat="50.59295" lon="3.42669">
        <ele>24</ele>
        <time>2026-01-26T16:55:50Z</time>
      </trkpt>
      <trkpt lat="50.59286" lon="3.42667">
        <ele>24</ele>
        <time>2026-01-26T16:55:51Z</time>
      </trkpt>
      <trkpt lat="50.59228" lon="3.427">
        <ele>21</ele>
        <time>2026-01-26T16:56:02Z</time>
      </trkpt>
      <trkpt lat="50.59162" lon="3.42793">
        <ele>19</ele>
        <time>2026-01-26T16:56:18Z</time>
      </trkpt>
      <trkpt lat="50.59089" lon="3.42667">
        <ele>20</ele>
        <time>2026-01-26T16:56:37Z</time>
      </trkpt>
      <trkpt lat="50.59065" lon="3.42602">
        <ele>19</ele>
        <time>2026-01-26T16:56:46Z</time>
      </trkpt>
      <trkpt lat="50.59053" lon="3.42583">
        <ele>19</ele>
        <time>2026-01-26T16:56:49Z</time>
      </trkpt>
      <trkpt lat="50.59044" lon="3.42575">
        <ele>18</ele>
        <time>2026-01-26T16:56:51Z</time>
      </trkpt>
      <trkpt lat="50.59029" lon="3.42567">
        <ele>18</ele>
        <time>2026-01-26T16:56:54Z</time>
      </trkpt>
      <trkpt lat="50.58998" lon="3.42565">
        <ele>17</ele>
        <time>2026-01-26T16:56:59Z</time>
      </trkpt>
      <trkpt lat="50.58988" lon="3.42556">
        <ele>16</ele>
        <time>2026-01-26T16:57:01Z</time>
      </trkpt>
      <trkpt lat="50.58983" lon="3.42563">
        <ele>16</ele>
        <time>2026-01-26T16:57:02Z</time>
      </trkpt>
      <trkpt lat="50.58964" lon="3.42612">
        <ele>17</ele>
        <time>2026-01-26T16:57:09Z</time>
      </trkpt>
      <trkpt lat="50.58945" lon="3.42646">
        <ele>17</ele>
        <time>2026-01-26T16:57:14Z</time>
      </trkpt>
      <trkpt lat="50.58912" lon="3.42746">
        <ele>17</ele>
        <time>2026-01-26T16:57:27Z</time>
      </trkpt>
      <trkpt lat="50.58762" lon="3.42474">
        <ele>22</ele>
        <time>2026-01-26T16:58:07Z</time>
      </trkpt>
      <trkpt lat="50.58702" lon="3.42553">
        <ele>23</ele>
        <time>2026-01-26T16:58:21Z</time>
      </trkpt>
      <trkpt lat="50.58678" lon="3.42591">
        <ele>23</ele>
        <time>2026-01-26T16:58:27Z</time>
      </trkpt>
      <trkpt lat="50.58642" lon="3.42671">
        <ele>22</ele>
        <time>2026-01-26T16:58:38Z</time>
      </trkpt>
      <trkpt lat="50.58525" lon="3.42904">
        <ele>20</ele>
        <time>2026-01-26T16:59:12Z</time>
      </trkpt>
      <trkpt lat="50.58405" lon="3.4308">
        <ele>22</ele>
        <time>2026-01-26T16:59:41Z</time>
      </trkpt>
      <trkpt lat="50.58327" lon="3.43172">
        <ele>26</ele>
        <time>2026-01-26T16:59:59Z</time>
      </trkpt>
      <trkpt lat="50.58131" lon="3.43366">
        <ele>29</ele>
        <time>2026-01-26T17:00:40Z</time>
      </trkpt>
      <trkpt lat="50.5803" lon="3.43486">
        <ele>26</ele>
        <time>2026-01-26T17:01:02Z</time>
      </trkpt>
      <trkpt lat="50.57998" lon="3.43508">
        <ele>25</ele>
        <time>2026-01-26T17:01:08Z</time>
      </trkpt>
      <trkpt lat="50.57899" lon="3.4354">
        <ele>26</ele>
        <time>2026-01-26T17:01:26Z</time>
      </trkpt>
      <trkpt lat="50.57878" lon="3.43556">
        <ele>26</ele>
        <time>2026-01-26T17:01:31Z</time>
      </trkpt>
      <trkpt lat="50.57827" lon="3.43623">
        <ele>28</ele>
        <time>2026-01-26T17:01:42Z</time>
      </trkpt>
      <trkpt lat="50.57812" lon="3.43645">
        <ele>28</ele>
        <time>2026-01-26T17:01:46Z</time>
      </trkpt>
      <trkpt lat="50.57809" lon="3.43661">
        <ele>29</ele>
        <time>2026-01-26T17:01:48Z</time>
      </trkpt>
      <trkpt lat="50.57825" lon="3.43764">
        <ele>28</ele>
        <time>2026-01-26T17:02:00Z</time>
      </trkpt>
      <trkpt lat="50.57817" lon="3.43785">
        <ele>27</ele>
        <time>2026-01-26T17:02:03Z</time>
      </trkpt>
      <trkpt lat="50.57776" lon="3.43824">
        <ele>28</ele>
        <time>2026-01-26T17:02:11Z</time>
      </trkpt>
      <trkpt lat="50.57745" lon="3.43837">
        <ele>29</ele>
        <time>2026-01-26T17:02:17Z</time>
      </trkpt>
      <trkpt lat="50.57708" lon="3.43862">
        <ele>29</ele>
        <time>2026-01-26T17:02:24Z</time>
      </trkpt>
      <trkpt lat="50.57674" lon="3.43898">
        <ele>28</ele>
        <time>2026-01-26T17:02:31Z</time>
      </trkpt>
      <trkpt lat="50.57612" lon="3.43936">
        <ele>26</ele>
        <time>2026-01-26T17:02:43Z</time>
      </trkpt>
      <trkpt lat="50.57498" lon="3.43979">
        <ele>17</ele>
        <time>2026-01-26T17:03:04Z</time>
      </trkpt>
      <trkpt lat="50.57041" lon="3.44111">
        <ele>17</ele>
        <time>2026-01-26T17:04:27Z</time>
      </trkpt>
      <trkpt lat="50.56824" lon="3.44097">
        <ele>19</ele>
        <time>2026-01-26T17:05:05Z</time>
      </trkpt>
      <trkpt lat="50.56823" lon="3.44112">
        <ele>18</ele>
        <time>2026-01-26T17:05:07Z</time>
      </trkpt>
      <trkpt lat="50.56774" lon="3.44115">
        <ele>18</ele>
        <time>2026-01-26T17:05:16Z</time>
      </trkpt>
      <trkpt lat="50.5676" lon="3.44128">
        <ele>17</ele>
        <time>2026-01-26T17:05:19Z</time>
      </trkpt>
      <trkpt lat="50.56751" lon="3.44152">
        <ele>15</ele>
        <time>2026-01-26T17:05:22Z</time>
      </trkpt>
      <trkpt lat="50.56739" lon="3.4433">
        <ele>15</ele>
        <time>2026-01-26T17:05:42Z</time>
      </trkpt>
      <trkpt lat="50.56752" lon="3.44443">
        <ele>18</ele>
        <time>2026-01-26T17:05:55Z</time>
      </trkpt>
      <trkpt lat="50.56755" lon="3.44513">
        <ele>19</ele>
        <time>2026-01-26T17:06:03Z</time>
      </trkpt>
    </trkseg>
  </trk>
</gpx>